Observation data for Fort Lewis CO on 07/11/2018      Previous  Date       Current Mesonet Observations  Soil Data  Daily Summary Page  Observations in Plain Language
KFL1 110500Z 04006KT 16/09 A304 RMK A01 T01610089  RH  062%=      5-min Rain = 0
KFL1 110501Z 04006KT 16/09 A304 RMK A01 T01620089  RH  062%=      5-min Rain = 0
KFL1 110502Z 04006KT 16/09 A304 RMK A01 T01620087  RH  061%=      5-min Rain = 0
KFL1 110503Z 04006KT 16/09 A304 RMK A01 T01640090  RH  062%=      5-min Rain = 0
KFL1 110504Z 04006KT 16/09 A304 RMK A01 T01640089  RH  061%=      5-min Rain = 0
KFL1 110505Z 04006KT 16/09 A304 RMK A01 T01640088  RH  061%=      5-min Rain = 0
KFL1 110506Z 04005KT 16/09 A304 RMK A01 T01640085  RH  060%=      5-min Rain = 0
KFL1 110507Z 04005KT 17/09 A304 RMK A01 T01660087  RH  060%=      5-min Rain = 0
KFL1 110508Z 04004KT 17/09 A304 RMK A01 T01660092  RH  062%=      5-min Rain = 0
KFL1 110509Z 03005KT 16/09 A304 RMK A01 T01630093  RH  063%=      5-min Rain = 0
KFL1 110510Z 04005KT 16/10 A304 RMK A01 T01600095  RH  065%=      5-min Rain = 0
KFL1 110511Z 03005KT 16/09 A304 RMK A01 T01570093  RH  065%=      5-min Rain = 0
KFL1 110512Z 03005KT 16/09 A304 RMK A01 T01560093  RH  066%=      5-min Rain = 0
KFL1 110513Z 03005KT 15/09 A304 RMK A01 T01540094  RH  067%=      5-min Rain = 0
KFL1 110514Z 03006KT 15/10 A304 RMK A01 T01530095  RH  069%=      5-min Rain = 0
KFL1 110515Z 03006KT 15/10 A304 RMK A01 T01500095  RH  069%=      5-min Rain = 0
KFL1 110516Z 03006KT 15/10 A304 RMK A01 T01500096  RH  070%=      5-min Rain = 0
KFL1 110517Z 04005KT 15/10 A304 RMK A01 T01480096  RH  071%=      5-min Rain = 0
KFL1 110518Z 04005KT 15/09 A304 RMK A01 T01470093  RH  070%=      5-min Rain = 0
KFL1 110519Z 04005KT 15/09 A304 RMK A01 T01470091  RH  069%=      5-min Rain = 0
KFL1 110520Z 04005KT 15/09 A304 RMK A01 T01500090  RH  067%=      5-min Rain = 0
KFL1 110521Z 05004KT 15/09 A3041 RMK A01 T01520089  RH  066%=      5-min Rain = 0
KFL1 110522Z 05004KT 15/09 A3041 RMK A01 T01530090  RH  066%=      5-min Rain = 0
KFL1 110523Z 04005KT 15/09 A3041 RMK A01 T01530090  RH  066%=      5-min Rain = 0
KFL1 110524Z 04005KT 16/09 A3041 RMK A01 T01550088  RH  065%=      5-min Rain = 0
KFL1 110525Z 04005KT 16/09 A3041 RMK A01 T01560087  RH  063%=      5-min Rain = 0
KFL1 110526Z 03006KT 16/09 A3041 RMK A01 T01580088  RH  063%=      5-min Rain = 0
KFL1 110527Z 04006KT 16/09 A3041 RMK A01 T01590089  RH  063%=      5-min Rain = 0
KFL1 110528Z 03006KT 16/09 A3041 RMK A01 T01590089  RH  063%=      5-min Rain = 0
KFL1 110529Z 04006KT 16/09 A3041 RMK A01 T01590090  RH  063%=      5-min Rain = 0
KFL1 110530Z 04006KT 16/09 A3041 RMK A01 T01580091  RH  064%=      5-min Rain = 0
KFL1 110531Z 04007KT 16/09 A3041 RMK A01 T01570092  RH  065%=      5-min Rain = 0
KFL1 110532Z 03007KT 16/09 A3041 RMK A01 T01560093  RH  066%=      5-min Rain = 0
KFL1 110533Z 04006KT 15/09 A3041 RMK A01 T01530093  RH  067%=      5-min Rain = 0
KFL1 110534Z 03006KT 15/10 A304 RMK A01 T01540096  RH  068%=      5-min Rain = 0
KFL1 110535Z 03005G10KT 15/09 A304 RMK A01 T01510093  RH  068%=      5-min Rain = 0
KFL1 110536Z 04008KT 15/09 A304 RMK A01 T01520093  RH  068%=      5-min Rain = 0
KFL1 110537Z 03007KT 15/09 A304 RMK A01 T01530092  RH  067%=      5-min Rain = 0
KFL1 110538Z 03006KT 16/09 A304 RMK A01 T01550091  RH  066%=      5-min Rain = 0
KFL1 110539Z 03008KT 16/09 A304 RMK A01 T01560093  RH  066%=      5-min Rain = 0
KFL1 110540Z 03007KT 16/09 A304 RMK A01 T01580090  RH  064%=      5-min Rain = 0
KFL1 110541Z 04005KT 16/09 A304 RMK A01 T01620093  RH  064%=      5-min Rain = 0
KFL1 110542Z 04006KT 16/09 A304 RMK A01 T01600091  RH  064%=      5-min Rain = 0
KFL1 110543Z 04008KT 16/09 A3041 RMK A01 T01600092  RH  064%=      5-min Rain = 0
KFL1 110544Z 03008KT 16/09 A3041 RMK A01 T01590092  RH  064%=      5-min Rain = 0
KFL1 110545Z 04008KT 16/09 A3041 RMK A01 T01600092  RH  064%=      5-min Rain = 0
KFL1 110546Z 04007KT 16/09 A3041 RMK A01 T01590093  RH  065%=      5-min Rain = 0
KFL1 110547Z 04008KT 16/09 A3041 RMK A01 T01570094  RH  066%=      5-min Rain = 0
KFL1 110548Z 05007KT 15/09 A3041 RMK A01 T01540094  RH  067%=      5-min Rain = 0
KFL1 110549Z 04008KT 15/10 A3041 RMK A01 T01510095  RH  069%=      5-min Rain = 0
KFL1 110550Z 04008KT 15/09 A3041 RMK A01 T01470093  RH  070%=      5-min Rain = 0
KFL1 110551Z 05008KT 15/09 A3041 RMK A01 T01470093  RH  070%=      5-min Rain = 0
KFL1 110552Z 05007KT 15/09 A3041 RMK A01 T01470093  RH  070%=      5-min Rain = 0
KFL1 110553Z 05008KT 15/09 A3041 RMK A01 T01470094  RH  071%=      5-min Rain = 0
KFL1 110554Z 05008KT 15/09 A3041 RMK A01 T01470094  RH  071%=      5-min Rain = 0
KFL1 110555Z 05008KT 15/09 A3041 RMK A01 T01460092  RH  070%=      5-min Rain = 0
KFL1 110556Z 05007KT 15/09 A3041 RMK A01 T01450092  RH  070%=      5-min Rain = 0
KFL1 110557Z 05008KT 15/09 A3041 RMK A01 T01460092  RH  070%=      5-min Rain = 0
KFL1 110558Z 04008KT 15/09 A3041 RMK A01 T01470093  RH  070%=      5-min Rain = 0
KFL1 110559Z 03007KT 15/09 A3041 RMK A01 T01460091  RH  069%=      5-min Rain = 0
KFL1 110600Z 03009KT 15/09 A3041 RMK A01 T01480092  RH  069%=      5-min Rain = 0
KFL1 110601Z 03009KT 15/09 A3041 RMK A01 T01500093  RH  068%=      5-min Rain = 0
KFL1 110602Z 03007KT 15/09 A3041 RMK A01 T01540093  RH  067%=      5-min Rain = 0
KFL1 110603Z 03006KT 16/09 A3041 RMK A01 T01550094  RH  067%=      5-min Rain = 0
KFL1 110604Z 04005KT 16/10 A3041 RMK A01 T01550095  RH  067%=      5-min Rain = 0
KFL1 110605Z 05004KT 16/09 A3041 RMK A01 T01550093  RH  066%=      5-min Rain = 0
KFL1 110606Z 04003KT 16/09 A3041 RMK A01 T01570091  RH  065%=      5-min Rain = 0
KFL1 110607Z 04003KT 16/09 A3041 RMK A01 T01590092  RH  064%=      5-min Rain = 0
KFL1 110608Z 04002KT 16/09 A3041 RMK A01 T01600093  RH  064%=      5-min Rain = 0
KFL1 110609Z 03004KT 16/10 A3041 RMK A01 T01620096  RH  065%=      5-min Rain = 0
KFL1 110610Z 02006KT 16/09 A3041 RMK A01 T01590092  RH  065%=      5-min Rain = 0
KFL1 110611Z 04006KT 16/09 A3041 RMK A01 T01570094  RH  066%=      5-min Rain = 0
KFL1 110612Z 03005KT 16/09 A3041 RMK A01 T01550093  RH  066%=      5-min Rain = 0
KFL1 110613Z 02005KT 16/09 A3041 RMK A01 T01570093  RH  066%=      5-min Rain = 0
KFL1 110614Z 03005KT 16/09 A3041 RMK A01 T01550092  RH  066%=      5-min Rain = 0
KFL1 110615Z 03005KT 16/09 A3041 RMK A01 T01550093  RH  066%=      5-min Rain = 0
KFL1 110616Z 02005KT 15/09 A3041 RMK A01 T01540092  RH  066%=      5-min Rain = 0
KFL1 110617Z 02006KT 15/09 A3041 RMK A01 T01540093  RH  067%=      5-min Rain = 0
KFL1 110618Z 02006KT 15/09 A3041 RMK A01 T01510093  RH  068%=      5-min Rain = 0
KFL1 110619Z 02006KT 15/09 A3041 RMK A01 T01490092  RH  069%=      5-min Rain = 0
KFL1 110620Z 02006KT 15/09 A3041 RMK A01 T01490093  RH  070%=      5-min Rain = 0
KFL1 110621Z 01007KT 15/09 A3041 RMK A01 T01480092  RH  069%=      5-min Rain = 0
KFL1 110622Z 01007KT 15/09 A3041 RMK A01 T01490091  RH  068%=      5-min Rain = 0
KFL1 110623Z 02008KT 15/09 A3041 RMK A01 T01490093  RH  069%=      5-min Rain = 0
KFL1 110624Z 02007KT 15/09 A3041 RMK A01 T01490094  RH  070%=      5-min Rain = 0
KFL1 110625Z 02007KT 15/09 A3041 RMK A01 T01470094  RH  070%=      5-min Rain = 0
KFL1 110626Z 03006KT 15/10 A3041 RMK A01 T01460096  RH  072%=      5-min Rain = 0
KFL1 110627Z 04006KT 15/09 A3041 RMK A01 T01450093  RH  071%=      5-min Rain = 0
KFL1 110628Z 03006KT 15/09 A3041 RMK A01 T01450089  RH  069%=      5-min Rain = 0
KFL1 110629Z 04005KT 15/09 A3041 RMK A01 T01480090  RH  068%=      5-min Rain = 0
KFL1 110630Z 02007KT 15/09 A3041 RMK A01 T01480090  RH  068%=      5-min Rain = 0
KFL1 110631Z 03007KT 15/09 A3041 RMK A01 T01470092  RH  069%=      5-min Rain = 0
KFL1 110632Z 03007KT 15/09 A3041 RMK A01 T01450091  RH  070%=      5-min Rain = 0
KFL1 110633Z 03006KT 15/09 A3041 RMK A01 T01460090  RH  069%=      5-min Rain = 0
KFL1 110634Z 03007KT 15/09 A3041 RMK A01 T01480090  RH  068%=      5-min Rain = 0
KFL1 110635Z 03007KT 15/09 A3041 RMK A01 T01480089  RH  068%=      5-min Rain = 0
KFL1 110636Z 03006KT 15/09 A3041 RMK A01 T01500090  RH  067%=      5-min Rain = 0
KFL1 110637Z 03005KT 15/09 A3041 RMK A01 T01510092  RH  068%=      5-min Rain = 0
KFL1 110638Z 03007KT 15/09 A3041 RMK A01 T01490091  RH  068%=      5-min Rain = 0
KFL1 110639Z 04006KT 15/09 A3041 RMK A01 T01470093  RH  070%=      5-min Rain = 0
KFL1 110640Z 03007KT 15/09 A3041 RMK A01 T01450092  RH  071%=      5-min Rain = 0
KFL1 110641Z 02007KT 14/09 A3041 RMK A01 T01430092  RH  071%=      5-min Rain = 0
KFL1 110642Z 03006KT 14/09 A3041 RMK A01 T01430092  RH  071%=      5-min Rain = 0
KFL1 110643Z 02007KT 14/09 A3041 RMK A01 T01430092  RH  071%=      5-min Rain = 0
KFL1 110644Z 02006KT 14/09 A3041 RMK A01 T01430092  RH  071%=      5-min Rain = 0
KFL1 110645Z 02006KT 14/09 A3041 RMK A01 T01430093  RH  072%=      5-min Rain = 0
KFL1 110646Z 01006KT 14/09 A3041 RMK A01 T01430094  RH  072%=      5-min Rain = 0
KFL1 110647Z 01006KT 14/09 A3041 RMK A01 T01410094  RH  073%=      5-min Rain = 0
KFL1 110648Z 02006KT 14/10 A3041 RMK A01 T01380095  RH  075%=      5-min Rain = 0
KFL1 110649Z 01007KT 13/10 A304 RMK A01 T01340095  RH  077%=      5-min Rain = 0
KFL1 110650Z 01007KT 13/09 A304 RMK A01 T01310094  RH  078%=      5-min Rain = 0
KFL1 110651Z 02007KT 13/09 A3041 RMK A01 T01290094  RH  079%=      5-min Rain = 0
KFL1 110652Z 01007KT 13/09 A3041 RMK A01 T01290094  RH  079%=      5-min Rain = 0
KFL1 110653Z 01007KT 13/09 A304 RMK A01 T01280094  RH  080%=      5-min Rain = 0
KFL1 110654Z 01008KT 13/09 A3041 RMK A01 T01280094  RH  080%=      5-min Rain = 0
KFL1 110655Z 01008KT 13/09 A3041 RMK A01 T01280094  RH  079%=      5-min Rain = 0
KFL1 110656Z 01008KT 13/09 A3041 RMK A01 T01290094  RH  080%=      5-min Rain = 0
KFL1 110657Z 01008KT 13/10 A3041 RMK A01 T01290096  RH  081%=      5-min Rain = 0
KFL1 110658Z 01008KT 13/10 A3041 RMK A01 T01260096  RH  082%=      5-min Rain = 0
KFL1 110659Z 01009KT 13/10 A304 RMK A01 T01260096  RH  082%=      5-min Rain = 0
KFL1 110700Z 01008KT 13/10 A304 RMK A01 T01270096  RH  081%=      5-min Rain = 0
KFL1 110701Z 02008KT 13/09 A304 RMK A01 T01270094  RH  080%=      5-min Rain = 0
KFL1 110702Z 01008KT 13/10 A3041 RMK A01 T01300095  RH  080%=      5-min Rain = 0
KFL1 110703Z 01007KT 13/09 A3041 RMK A01 T01290094  RH  079%=      5-min Rain = 0
KFL1 110704Z 01008KT 13/10 A304 RMK A01 T01300095  RH  079%=      5-min Rain = 0
KFL1 110705Z 01007KT 13/10 A304 RMK A01 T01290095  RH  080%=      5-min Rain = 0
KFL1 110706Z 01007KT 13/10 A3041 RMK A01 T01280095  RH  080%=      5-min Rain = 0
KFL1 110707Z 01006KT 13/10 A3041 RMK A01 T01280095  RH  080%=      5-min Rain = 0
KFL1 110708Z 01007KT 13/09 A3041 RMK A01 T01260094  RH  081%=      5-min Rain = 0
KFL1 110709Z 00007KT 13/09 A3041 RMK A01 T01260094  RH  081%=      5-min Rain = 0
KFL1 110710Z 00007KT 13/09 A3041 RMK A01 T01250094  RH  081%=      5-min Rain = 0
KFL1 110711Z 36008KT 13/09 A3041 RMK A01 T01260094  RH  081%=      5-min Rain = 0
KFL1 110712Z 36007KT 13/10 A3041 RMK A01 T01260095  RH  081%=      5-min Rain = 0
KFL1 110713Z 36008KT 13/10 A3041 RMK A01 T01260096  RH  082%=      5-min Rain = 0
KFL1 110714Z 35007KT 13/10 A3041 RMK A01 T01250096  RH  083%=      5-min Rain = 0
KFL1 110715Z 35008KT 12/10 A3041 RMK A01 T01230096  RH  083%=      5-min Rain = 0
KFL1 110716Z 35008KT 12/10 A3041 RMK A01 T01220095  RH  083%=      5-min Rain = 0
KFL1 110717Z 35008KT 12/10 A3041 RMK A01 T01230096  RH  084%=      5-min Rain = 0
KFL1 110718Z 35009KT 12/10 A3041 RMK A01 T01220095  RH  083%=      5-min Rain = 0
KFL1 110719Z 36009KT 12/10 A3041 RMK A01 T01230096  RH  083%=      5-min Rain = 0
KFL1 110720Z 00009KT 12/10 A3041 RMK A01 T01230095  RH  083%=      5-min Rain = 0
KFL1 110721Z 00008KT 12/10 A3041 RMK A01 T01240095  RH  083%=      5-min Rain = 0
KFL1 110722Z 00008KT 13/10 A304 RMK A01 T01260096  RH  082%=      5-min Rain = 0
KFL1 110723Z 00009KT 13/10 A304 RMK A01 T01260095  RH  082%=      5-min Rain = 0
KFL1 110724Z 00008KT 13/10 A304 RMK A01 T01270096  RH  082%=      5-min Rain = 0
KFL1 110725Z 00009KT 13/10 A304 RMK A01 T01270097  RH  082%=      5-min Rain = 0
KFL1 110726Z 36009KT 13/10 A304 RMK A01 T01250095  RH  082%=      5-min Rain = 0
KFL1 110727Z 36009KT 13/10 A304 RMK A01 T01260097  RH  082%=      5-min Rain = 0
KFL1 110728Z 35008KT 13/10 A304 RMK A01 T01250095  RH  082%=      5-min Rain = 0
KFL1 110729Z 35008KT 13/09 A304 RMK A01 T01270093  RH  080%=      5-min Rain = 0
KFL1 110730Z 35009KT 13/10 A304 RMK A01 T01300095  RH  079%=      5-min Rain = 0
KFL1 110731Z 35009KT 13/09 A304 RMK A01 T01290094  RH  079%=      5-min Rain = 0
KFL1 110732Z 36009KT 13/09 A304 RMK A01 T01300094  RH  079%=      5-min Rain = 0
KFL1 110733Z 36009KT 13/09 A304 RMK A01 T01290094  RH  079%=      5-min Rain = 0
KFL1 110734Z 35008KT 13/09 A304 RMK A01 T01290092  RH  079%=      5-min Rain = 0
KFL1 110735Z 36007KT 13/09 A304 RMK A01 T01290093  RH  079%=      5-min Rain = 0
KFL1 110736Z 00007KT 13/09 A304 RMK A01 T01280092  RH  078%=      5-min Rain = 0
KFL1 110737Z 00006KT 13/09 A304 RMK A01 T01290093  RH  079%=      5-min Rain = 0
KFL1 110738Z 01007KT 13/09 A304 RMK A01 T01280094  RH  079%=      5-min Rain = 0
KFL1 110739Z 02007KT 13/10 A304 RMK A01 T01290096  RH  080%=      5-min Rain = 0
KFL1 110740Z 01006KT 13/09 A3039 RMK A01 T01270092  RH  079%=      5-min Rain = 0
KFL1 110741Z 01007KT 13/09 A3039 RMK A01 T01270092  RH  079%=      5-min Rain = 0
KFL1 110742Z 36006KT 13/09 A3039 RMK A01 T01290092  RH  078%=      5-min Rain = 0
KFL1 110743Z 35006KT 13/09 A3039 RMK A01 T01300091  RH  077%=      5-min Rain = 0
KFL1 110744Z 35006KT 13/09 A3039 RMK A01 T01310093  RH  078%=      5-min Rain = 0
KFL1 110745Z 34005KT 13/09 A3039 RMK A01 T01300094  RH  078%=      5-min Rain = 0
KFL1 110746Z 34006KT 13/09 A3039 RMK A01 T01300093  RH  078%=      5-min Rain = 0
KFL1 110747Z 35007KT 13/09 A3039 RMK A01 T01320093  RH  077%=      5-min Rain = 0
KFL1 110748Z 35007KT 13/09 A3039 RMK A01 T01340091  RH  075%=      5-min Rain = 0
KFL1 110749Z 35008KT 14/09 A3039 RMK A01 T01370093  RH  074%=      5-min Rain = 0
KFL1 110750Z 35008KT 14/09 A3039 RMK A01 T01390092  RH  073%=      5-min Rain = 0
KFL1 110751Z 34009KT 14/09 A3039 RMK A01 T01400093  RH  073%=      5-min Rain = 0
KFL1 110752Z 34009KT 14/09 A3039 RMK A01 T01410093  RH  073%=      5-min Rain = 0
KFL1 110753Z 35008KT 14/09 A3038 RMK A01 T01420092  RH  072%=      5-min Rain = 0
KFL1 110754Z 35009KT 15/09 A3038 RMK A01 T01450091  RH  070%=      5-min Rain = 0
KFL1 110755Z 35010KT 15/09 A3038 RMK A01 T01470091  RH  069%=      5-min Rain = 0
KFL1 110756Z 35009KT 15/09 A3038 RMK A01 T01480090  RH  068%=      5-min Rain = 0
KFL1 110757Z 34009KT 15/09 A3038 RMK A01 T01490088  RH  067%=      5-min Rain = 0
KFL1 110758Z 34008KT 15/09 A3038 RMK A01 T01500088  RH  066%=      5-min Rain = 0
KFL1 110759Z 34009KT 15/09 A3038 RMK A01 T01520088  RH  065%=      5-min Rain = 0
KFL1 110800Z 34009KT 15/09 A3038 RMK A01 T01540089  RH  065%=      5-min Rain = 0
KFL1 110801Z 34008KT 15/09 A3038 RMK A01 T01530087  RH  065%=      5-min Rain = 0
KFL1 110802Z 34007KT 15/09 A3038 RMK A01 T01530085  RH  064%=      5-min Rain = 0
KFL1 110803Z 34007KT 15/09 A3038 RMK A01 T01540085  RH  064%=      5-min Rain = 0
KFL1 110804Z 35007KT 16/09 A3038 RMK A01 T01550085  RH  063%=      5-min Rain = 0
KFL1 110805Z 35007KT 15/09 A3038 RMK A01 T01540086  RH  064%=      5-min Rain = 0
KFL1 110806Z 35006KT 15/09 A3038 RMK A01 T01530087  RH  065%=      5-min Rain = 0
KFL1 110807Z 35006KT 15/09 A3038 RMK A01 T01510088  RH  066%=      5-min Rain = 0
KFL1 110808Z 00006KT 15/09 A3038 RMK A01 T01490088  RH  067%=      5-min Rain = 0
KFL1 110809Z 01006KT 15/09 A3038 RMK A01 T01480086  RH  066%=      5-min Rain = 0
KFL1 110810Z 04006KT 15/09 A3038 RMK A01 T01480086  RH  066%=      5-min Rain = 0
KFL1 110811Z 04007KT 15/09 A3038 RMK A01 T01470086  RH  067%=      5-min Rain = 0
KFL1 110812Z 04006KT 15/09 A3038 RMK A01 T01450086  RH  068%=      5-min Rain = 0
KFL1 110813Z 03006KT 15/09 A3038 RMK A01 T01450088  RH  069%=      5-min Rain = 0
KFL1 110814Z 01005KT 15/09 A3038 RMK A01 T01450088  RH  069%=      5-min Rain = 0
KFL1 110815Z 00006KT 14/09 A3038 RMK A01 T01420086  RH  069%=      5-min Rain = 0
KFL1 110816Z 00007KT 14/09 A3038 RMK A01 T01420089  RH  071%=      5-min Rain = 0
KFL1 110817Z 36008KT 14/09 A3038 RMK A01 T01410092  RH  072%=      5-min Rain = 0
KFL1 110818Z 00008KT 14/09 A3038 RMK A01 T01410093  RH  073%=      5-min Rain = 0
KFL1 110819Z 00008KT 14/09 A3038 RMK A01 T01390091  RH  072%=      5-min Rain = 0
KFL1 110820Z 01007KT 14/09 A3038 RMK A01 T01400090  RH  072%=      5-min Rain = 0
KFL1 110821Z 00008KT 14/09 A3038 RMK A01 T01410091  RH  071%=      5-min Rain = 0
KFL1 110822Z 00008KT 14/09 A3038 RMK A01 T01420091  RH  071%=      5-min Rain = 0
KFL1 110823Z 00008KT 14/09 A3038 RMK A01 T01410091  RH  072%=      5-min Rain = 0
KFL1 110824Z 00009KT 14/09 A3038 RMK A01 T01430091  RH  071%=      5-min Rain = 0
KFL1 110825Z 36009KT 14/09 A3038 RMK A01 T01420090  RH  071%=      5-min Rain = 0
KFL1 110826Z 00009KT 14/09 A3038 RMK A01 T01430093  RH  071%=      5-min Rain = 0
KFL1 110827Z 00008KT 14/09 A3038 RMK A01 T01430091  RH  071%=      5-min Rain = 0
KFL1 110828Z 00009KT 14/09 A3038 RMK A01 T01440089  RH  069%=      5-min Rain = 0
KFL1 110829Z 00009KT 15/09 A3038 RMK A01 T01450090  RH  069%=      5-min Rain = 0
KFL1 110830Z 00008KT 15/09 A3038 RMK A01 T01480092  RH  069%=      5-min Rain = 0
KFL1 110831Z 01008KT 15/09 A3038 RMK A01 T01480091  RH  069%=      5-min Rain = 0
KFL1 110832Z 01007KT 15/09 A3038 RMK A01 T01470091  RH  069%=      5-min Rain = 0
KFL1 110833Z 02007KT 15/09 A3038 RMK A01 T01480092  RH  069%=      5-min Rain = 0
KFL1 110834Z 03006KT 15/09 A3038 RMK A01 T01480089  RH  067%=      5-min Rain = 0
KFL1 110835Z 03004KT 15/09 A3038 RMK A01 T01490087  RH  066%=      5-min Rain = 0
KFL1 110836Z 03005KT 15/09 A3038 RMK A01 T01500085  RH  065%=      5-min Rain = 0
KFL1 110837Z 02006KT 15/09 A3038 RMK A01 T01500085  RH  065%=      5-min Rain = 0
KFL1 110838Z 02006KT 15/08 A3038 RMK A01 T01520084  RH  064%=      5-min Rain = 0
KFL1 110839Z 02007KT 16/09 A3038 RMK A01 T01550085  RH  063%=      5-min Rain = 0
KFL1 110840Z 02006KT 16/09 A3038 RMK A01 T01570086  RH  063%=      5-min Rain = 0
KFL1 110841Z 02005KT 16/08 A3038 RMK A01 T01570082  RH  061%=      5-min Rain = 0
KFL1 110842Z 03004KT 16/09 A3038 RMK A01 T01590085  RH  061%=      5-min Rain = 0
KFL1 110843Z 06002KT 16/09 A3038 RMK A01 T01580090  RH  064%=      5-min Rain = 0
KFL1 110844Z 07003KT 16/09 A3038 RMK A01 T01570091  RH  065%=      5-min Rain = 0
KFL1 110845Z 07004KT 15/09 A3038 RMK A01 T01530090  RH  066%=      5-min Rain = 0
KFL1 110846Z 07004KT 15/09 A3038 RMK A01 T01500088  RH  067%=      5-min Rain = 0
KFL1 110847Z 07005KT 15/09 A3038 RMK A01 T01480088  RH  067%=      5-min Rain = 0
KFL1 110848Z 07005KT 15/09 A3038 RMK A01 T01470087  RH  067%=      5-min Rain = 0
KFL1 110849Z 06004KT 15/09 A3038 RMK A01 T01460087  RH  068%=      5-min Rain = 0
KFL1 110850Z 07005KT 15/09 A3038 RMK A01 T01460088  RH  068%=      5-min Rain = 0
KFL1 110851Z 06004KT 15/09 A3038 RMK A01 T01470087  RH  068%=      5-min Rain = 0
KFL1 110852Z 07004KT 15/09 A3038 RMK A01 T01460086  RH  067%=      5-min Rain = 0
KFL1 110853Z 07004KT 15/09 A3038 RMK A01 T01460086  RH  067%=      5-min Rain = 0
KFL1 110854Z 06004KT 15/09 A3038 RMK A01 T01460086  RH  067%=      5-min Rain = 0
KFL1 110855Z 06004KT 15/09 A3038 RMK A01 T01460086  RH  067%=      5-min Rain = 0
KFL1 110856Z 06005KT 15/09 A3038 RMK A01 T01460086  RH  067%=      5-min Rain = 0
KFL1 110857Z 06004KT 15/09 A3038 RMK A01 T01470086  RH  067%=      5-min Rain = 0
KFL1 110858Z 07004KT 15/09 A3038 RMK A01 T01460085  RH  067%=      5-min Rain = 0
KFL1 110859Z 07004KT 15/09 A3038 RMK A01 T01470085  RH  066%=      5-min Rain = 0
KFL1 110900Z 07004KT 15/09 A3038 RMK A01 T01460085  RH  066%=      5-min Rain = 0
KFL1 110901Z 06004KT 15/09 A3038 RMK A01 T01480087  RH  067%=      5-min Rain = 0
KFL1 110902Z 06004KT 15/09 A3038 RMK A01 T01470085  RH  066%=      5-min Rain = 0
KFL1 110903Z 06005KT 15/09 A3038 RMK A01 T01470085  RH  066%=      5-min Rain = 0
KFL1 110904Z 06005KT 15/09 A3038 RMK A01 T01480085  RH  066%=      5-min Rain = 0
KFL1 110905Z 06006KT 15/08 A3038 RMK A01 T01470083  RH  065%=      5-min Rain = 0
KFL1 110906Z 06006KT 15/08 A3038 RMK A01 T01490083  RH  064%=      5-min Rain = 0
KFL1 110907Z 06006KT 15/08 A3038 RMK A01 T01500082  RH  064%=      5-min Rain = 0
KFL1 110908Z 05006KT 15/08 A3038 RMK A01 T01510082  RH  064%=      5-min Rain = 0
KFL1 110909Z 05006KT 15/08 A3038 RMK A01 T01520083  RH  063%=      5-min Rain = 0
KFL1 110910Z 05006KT 15/08 A3038 RMK A01 T01520082  RH  063%=      5-min Rain = 0
KFL1 110911Z 05006KT 15/08 A3038 RMK A01 T01520082  RH  063%=      5-min Rain = 0
KFL1 110912Z 05006KT 15/08 A3038 RMK A01 T01520081  RH  063%=      5-min Rain = 0
KFL1 110913Z 05006KT 15/08 A3038 RMK A01 T01520081  RH  063%=      5-min Rain = 0
KFL1 110914Z 05007KT 15/08 A3037 RMK A01 T01530082  RH  063%=      5-min Rain = 0
KFL1 110915Z 05005KT 15/08 A3037 RMK A01 T01530083  RH  063%=      5-min Rain = 0
KFL1 110916Z 05006KT 15/08 A3037 RMK A01 T01520083  RH  063%=      5-min Rain = 0
KFL1 110917Z 06005KT 15/08 A3037 RMK A01 T01520084  RH  064%=      5-min Rain = 0
KFL1 110918Z 05005KT 15/09 A3037 RMK A01 T01510085  RH  065%=      5-min Rain = 0
KFL1 110919Z 06005KT 15/08 A3037 RMK A01 T01500084  RH  065%=      5-min Rain = 0
KFL1 110920Z 06005KT 15/09 A3037 RMK A01 T01510087  RH  065%=      5-min Rain = 0
KFL1 110921Z 06006KT 15/09 A3037 RMK A01 T01490086  RH  066%=      5-min Rain = 0
KFL1 110922Z 05006KT 15/08 A3037 RMK A01 T01480084  RH  065%=      5-min Rain = 0
KFL1 110923Z 05007KT 15/08 A3037 RMK A01 T01480084  RH  066%=      5-min Rain = 0
KFL1 110924Z 05007KT 15/08 A3037 RMK A01 T01470083  RH  065%=      5-min Rain = 0
KFL1 110925Z 05007KT 15/08 A3037 RMK A01 T01480084  RH  065%=      5-min Rain = 0
KFL1 110926Z 04007KT 15/08 A3037 RMK A01 T01480083  RH  065%=      5-min Rain = 0
KFL1 110927Z 05007KT 15/08 A3037 RMK A01 T01490084  RH  065%=      5-min Rain = 0
KFL1 110928Z 04007KT 15/08 A3037 RMK A01 T01490083  RH  064%=      5-min Rain = 0
KFL1 110929Z 04007KT 15/08 A3037 RMK A01 T01490083  RH  065%=      5-min Rain = 0
KFL1 110930Z 05007KT 15/08 A3037 RMK A01 T01490083  RH  065%=      5-min Rain = 0
KFL1 110931Z 04007KT 15/08 A3037 RMK A01 T01480083  RH  065%=      5-min Rain = 0
KFL1 110932Z 04007KT 15/09 A3037 RMK A01 T01500085  RH  065%=      5-min Rain = 0
KFL1 110933Z 04007KT 15/08 A3037 RMK A01 T01490084  RH  065%=      5-min Rain = 0
KFL1 110934Z 05007KT 15/09 A3037 RMK A01 T01490085  RH  065%=      5-min Rain = 0
KFL1 110935Z 05006KT 15/09 A3037 RMK A01 T01500086  RH  065%=      5-min Rain = 0
KFL1 110936Z 05006KT 15/09 A3037 RMK A01 T01480085  RH  066%=      5-min Rain = 0
KFL1 110937Z 05006KT 15/08 A3037 RMK A01 T01470084  RH  066%=      5-min Rain = 0
KFL1 110938Z 05005KT 15/09 A3037 RMK A01 T01460085  RH  066%=      5-min Rain = 0
KFL1 110939Z 05005KT 15/08 A3037 RMK A01 T01460084  RH  066%=      5-min Rain = 0
KFL1 110940Z 05005KT 15/08 A3037 RMK A01 T01460084  RH  067%=      5-min Rain = 0
KFL1 110941Z 06005KT 14/08 A3037 RMK A01 T01440084  RH  067%=      5-min Rain = 0
KFL1 110942Z 06005KT 14/08 A3037 RMK A01 T01430084  RH  067%=      5-min Rain = 0
KFL1 110943Z 05006KT 15/08 A3037 RMK A01 T01450084  RH  067%=      5-min Rain = 0
KFL1 110944Z 05006KT 15/08 A3037 RMK A01 T01450083  RH  066%=      5-min Rain = 0
KFL1 110945Z 05006KT 15/08 A3037 RMK A01 T01450081  RH  065%=      5-min Rain = 0
KFL1 110946Z 05006KT 15/08 A3037 RMK A01 T01480082  RH  065%=      5-min Rain = 0
KFL1 110947Z 05005KT 15/08 A3036 RMK A01 T01480081  RH  064%=      5-min Rain = 0
KFL1 110948Z 05006KT 15/08 A3036 RMK A01 T01480080  RH  064%=      5-min Rain = 0
KFL1 110949Z 05007KT 15/08 A3036 RMK A01 T01490079  RH  063%=      5-min Rain = 0
KFL1 110950Z 05006KT 15/08 A3036 RMK A01 T01520079  RH  062%=      5-min Rain = 0
KFL1 110951Z 05005KT 15/08 A3036 RMK A01 T01520078  RH  061%=      5-min Rain = 0
KFL1 110952Z 08004KT 15/08 A3036 RMK A01 T01520082  RH  063%=      5-min Rain = 0
KFL1 110953Z 08004KT 15/08 A3036 RMK A01 T01510083  RH  064%=      5-min Rain = 0
KFL1 110954Z 05005KT 15/08 A3036 RMK A01 T01500079  RH  062%=      5-min Rain = 0
KFL1 110955Z 06004KT 15/08 A3036 RMK A01 T01500079  RH  063%=      5-min Rain = 0
KFL1 110956Z 06003KT 15/08 A3036 RMK A01 T01510081  RH  063%=      5-min Rain = 0
KFL1 110957Z 06004KT 15/08 A3037 RMK A01 T01510081  RH  063%=      5-min Rain = 0
KFL1 110958Z 06004KT 15/08 A3037 RMK A01 T01510082  RH  063%=      5-min Rain = 0
KFL1 110959Z 07004KT 15/08 A3037 RMK A01 T01500082  RH  064%=      5-min Rain = 0
KFL1 111000Z 07004KT 15/08 A3037 RMK A01 T01470080  RH  064%=      5-min Rain = 0
KFL1 111001Z 08004KT 15/08 A3037 RMK A01 T01470082  RH  065%=      5-min Rain = 0
KFL1 111002Z 07005KT 15/08 A3037 RMK A01 T01470082  RH  065%=      5-min Rain = 0
KFL1 111003Z 06005KT 15/08 A3036 RMK A01 T01450080  RH  065%=      5-min Rain = 0
KFL1 111004Z 06005KT 15/08 A3036 RMK A01 T01460079  RH  064%=      5-min Rain = 0
KFL1 111005Z 06004KT 15/08 A3036 RMK A01 T01460077  RH  063%=      5-min Rain = 0
KFL1 111006Z 05004KT 15/08 A3036 RMK A01 T01490077  RH  062%=      5-min Rain = 0
KFL1 111007Z 06004KT 15/08 A3036 RMK A01 T01500076  RH  061%=      5-min Rain = 0
KFL1 111008Z 05004KT 15/08 A3036 RMK A01 T01500075  RH  061%=      5-min Rain = 0
KFL1 111009Z 05005KT 15/08 A3036 RMK A01 T01510076  RH  061%=      5-min Rain = 0
KFL1 111010Z 05004KT 15/08 A3036 RMK A01 T01510075  RH  060%=      5-min Rain = 0
KFL1 111011Z 05005KT 15/08 A3036 RMK A01 T01520077  RH  061%=      5-min Rain = 0
KFL1 111012Z 05005KT 15/08 A3036 RMK A01 T01520077  RH  061%=      5-min Rain = 0
KFL1 111013Z 06004KT 15/08 A3036 RMK A01 T01510075  RH  061%=      5-min Rain = 0
KFL1 111014Z 06004KT 15/08 A3036 RMK A01 T01530079  RH  061%=      5-min Rain = 0
KFL1 111015Z 05004KT 15/08 A3036 RMK A01 T01510079  RH  062%=      5-min Rain = 0
KFL1 111016Z 05004KT 15/08 A3036 RMK A01 T01510081  RH  063%=      5-min Rain = 0
KFL1 111017Z 04003KT 15/08 A3036 RMK A01 T01500080  RH  063%=      5-min Rain = 0
KFL1 111018Z 05004KT 15/08 A3036 RMK A01 T01500080  RH  063%=      5-min Rain = 0
KFL1 111019Z 05003KT 15/08 A3036 RMK A01 T01490079  RH  063%=      5-min Rain = 0
KFL1 111020Z 05003KT 15/08 A3036 RMK A01 T01500080  RH  063%=      5-min Rain = 0
KFL1 111021Z 06003KT 15/08 A3036 RMK A01 T01490079  RH  063%=      5-min Rain = 0
KFL1 111022Z 08003KT 15/08 A3037 RMK A01 T01500078  RH  062%=      5-min Rain = 0
KFL1 111023Z 08003KT 15/08 A3037 RMK A01 T01490078  RH  062%=      5-min Rain = 0
KFL1 111024Z 08003KT 15/08 A3037 RMK A01 T01500078  RH  062%=      5-min Rain = 0
KFL1 111025Z 07003KT 15/08 A3037 RMK A01 T01500079  RH  063%=      5-min Rain = 0
KFL1 111026Z 05004KT 15/08 A3037 RMK A01 T01500081  RH  063%=      5-min Rain = 0
KFL1 111027Z 05005KT 15/08 A3037 RMK A01 T01490081  RH  064%=      5-min Rain = 0
KFL1 111028Z 04005KT 15/08 A3036 RMK A01 T01480082  RH  064%=      5-min Rain = 0
KFL1 111029Z 04005KT 15/08 A3036 RMK A01 T01480080  RH  064%=      5-min Rain = 0
KFL1 111030Z 04005KT 15/08 A3036 RMK A01 T01480080  RH  064%=      5-min Rain = 0
KFL1 111031Z 04004KT 15/08 A3036 RMK A01 T01490078  RH  063%=      5-min Rain = 0
KFL1 111032Z 04004KT 15/08 A3036 RMK A01 T01510078  RH  062%=      5-min Rain = 0
KFL1 111033Z 05005KT 15/08 A3036 RMK A01 T01510076  RH  061%=      5-min Rain = 0
KFL1 111034Z 04005KT 15/08 A3036 RMK A01 T01530076  RH  060%=      5-min Rain = 0
KFL1 111035Z 04004KT 15/08 A3036 RMK A01 T01540077  RH  060%=      5-min Rain = 0
KFL1 111036Z 03004KT 15/08 A3036 RMK A01 T01540079  RH  061%=      5-min Rain = 0
KFL1 111037Z 03004KT 15/08 A3036 RMK A01 T01530080  RH  062%=      5-min Rain = 0
KFL1 111038Z 04005KT 15/08 A3036 RMK A01 T01510080  RH  063%=      5-min Rain = 0
KFL1 111039Z 04005KT 15/08 A3036 RMK A01 T01500080  RH  063%=      5-min Rain = 0
KFL1 111040Z 04005KT 15/08 A3036 RMK A01 T01490081  RH  064%=      5-min Rain = 0
KFL1 111041Z 05005KT 15/08 A3036 RMK A01 T01480081  RH  064%=      5-min Rain = 0
KFL1 111042Z 05005KT 15/08 A3036 RMK A01 T01470081  RH  064%=      5-min Rain = 0
KFL1 111043Z 05005KT 15/08 A3036 RMK A01 T01470082  RH  065%=      5-min Rain = 0
KFL1 111044Z 05005KT 15/08 A3036 RMK A01 T01450082  RH  066%=      5-min Rain = 0
KFL1 111045Z 04005KT 14/08 A3036 RMK A01 T01440083  RH  067%=      5-min Rain = 0
KFL1 111046Z 04005KT 14/08 A3036 RMK A01 T01430082  RH  067%=      5-min Rain = 0
KFL1 111047Z 04004KT 14/08 A3036 RMK A01 T01420083  RH  067%=      5-min Rain = 0
KFL1 111048Z 06004KT 14/08 A3036 RMK A01 T01430084  RH  067%=      5-min Rain = 0
KFL1 111049Z 05005KT 14/08 A3036 RMK A01 T01430083  RH  067%=      5-min Rain = 0
KFL1 111050Z 05006KT 14/08 A3036 RMK A01 T01410083  RH  068%=      5-min Rain = 0
KFL1 111051Z 04006KT 14/08 A3036 RMK A01 T01410084  RH  069%=      5-min Rain = 0
KFL1 111052Z 04004KT 14/08 A3036 RMK A01 T01400084  RH  069%=      5-min Rain = 0
KFL1 111053Z 03006KT 14/08 A3036 RMK A01 T01390084  RH  069%=      5-min Rain = 0
KFL1 111054Z 03007KT 14/09 A3036 RMK A01 T01390085  RH  070%=      5-min Rain = 0
KFL1 111055Z 03006KT 14/09 A3036 RMK A01 T01400086  RH  070%=      5-min Rain = 0
KFL1 111056Z 02004KT 14/09 A3036 RMK A01 T01380085  RH  070%=      5-min Rain = 0
KFL1 111057Z 02005KT 14/09 A3036 RMK A01 T01360086  RH  072%=      5-min Rain = 0
KFL1 111058Z 02005KT 13/09 A3036 RMK A01 T01340087  RH  073%=      5-min Rain = 0
KFL1 111059Z 02006KT 13/09 A3036 RMK A01 T01330089  RH  075%=      5-min Rain = 0
KFL1 111100Z 03006KT 13/09 A3036 RMK A01 T01290088  RH  076%=      5-min Rain = 0
KFL1 111101Z 03005KT 13/09 A3036 RMK A01 T01260087  RH  077%=      5-min Rain = 0
KFL1 111102Z 03004KT 13/09 A3036 RMK A01 T01250088  RH  078%=      5-min Rain = 0
KFL1 111103Z 03004KT 12/09 A3036 RMK A01 T01240087  RH  078%=      5-min Rain = 0
KFL1 111104Z 03005KT 13/09 A3036 RMK A01 T01250088  RH  078%=      5-min Rain = 0
KFL1 111105Z 02006KT 12/09 A3036 RMK A01 T01240087  RH  078%=      5-min Rain = 0
KFL1 111106Z 03006KT 12/09 A3036 RMK A01 T01240086  RH  078%=      5-min Rain = 0
KFL1 111107Z 03005KT 12/09 A3036 RMK A01 T01240086  RH  078%=      5-min Rain = 0
KFL1 111108Z 03004KT 12/09 A3036 RMK A01 T01230085  RH  077%=      5-min Rain = 0
KFL1 111109Z 04003KT 12/08 A3036 RMK A01 T01240084  RH  077%=      5-min Rain = 0
KFL1 111110Z 05004KT 13/09 A3036 RMK A01 T01260085  RH  076%=      5-min Rain = 0
KFL1 111111Z 05005KT 13/08 A3036 RMK A01 T01250083  RH  076%=      5-min Rain = 0
KFL1 111112Z 04006KT 13/09 A3036 RMK A01 T01250085  RH  076%=      5-min Rain = 0
KFL1 111113Z 05006KT 13/09 A3036 RMK A01 T01260086  RH  077%=      5-min Rain = 0
KFL1 111114Z 04006KT 12/08 A3036 RMK A01 T01240084  RH  077%=      5-min Rain = 0
KFL1 111115Z 04006KT 12/09 A3036 RMK A01 T01240085  RH  077%=      5-min Rain = 0
KFL1 111116Z 03006KT 12/08 A3036 RMK A01 T01240084  RH  076%=      5-min Rain = 0
KFL1 111117Z 03006KT 13/09 A3036 RMK A01 T01260085  RH  076%=      5-min Rain = 0
KFL1 111118Z 03006KT 13/08 A3036 RMK A01 T01260083  RH  075%=      5-min Rain = 0
KFL1 111119Z 02006KT 13/08 A3036 RMK A01 T01270083  RH  075%=      5-min Rain = 0
KFL1 111120Z 03005KT 13/08 A3036 RMK A01 T01270082  RH  074%=      5-min Rain = 0
KFL1 111121Z 02005KT 13/08 A3036 RMK A01 T01280084  RH  075%=      5-min Rain = 0
KFL1 111122Z 03004KT 13/09 A3036 RMK A01 T01260085  RH  076%=      5-min Rain = 0
KFL1 111123Z 03002KT 12/08 A3036 RMK A01 T01240084  RH  076%=      5-min Rain = 0
KFL1 111124Z 03002KT 12/08 A3036 RMK A01 T01230083  RH  077%=      5-min Rain = 0
KFL1 111125Z 02003KT 12/08 A3036 RMK A01 T01220084  RH  078%=      5-min Rain = 0
KFL1 111126Z 02004KT 12/08 A3036 RMK A01 T01200084  RH  079%=      5-min Rain = 0
KFL1 111127Z 02005KT 12/08 A3036 RMK A01 T01190084  RH  079%=      5-min Rain = 0
KFL1 111128Z 02006KT 12/08 A3036 RMK A01 T01180084  RH  080%=      5-min Rain = 0
KFL1 111129Z 02005KT 12/08 A3036 RMK A01 T01160084  RH  080%=      5-min Rain = 0
KFL1 111130Z 02006KT 12/08 A3036 RMK A01 T01150082  RH  080%=      5-min Rain = 0
KFL1 111131Z 02006KT 12/08 A3036 RMK A01 T01160084  RH  081%=      5-min Rain = 0
KFL1 111132Z 02006KT 12/08 A3036 RMK A01 T01150084  RH  081%=      5-min Rain = 0
KFL1 111133Z 01005KT 12/08 A3036 RMK A01 T01150084  RH  081%=      5-min Rain = 0
KFL1 111134Z 02006KT 12/09 A3036 RMK A01 T01150085  RH  082%=      5-min Rain = 0
KFL1 111135Z 02006KT 11/08 A3036 RMK A01 T01140084  RH  082%=      5-min Rain = 0
KFL1 111136Z 02005KT 11/08 A3036 RMK A01 T01130084  RH  082%=      5-min Rain = 0
KFL1 111137Z 02005KT 11/08 A3036 RMK A01 T01130083  RH  082%=      5-min Rain = 0
KFL1 111138Z 03005KT 11/08 A3036 RMK A01 T01130083  RH  082%=      5-min Rain = 0
KFL1 111139Z 04003KT 11/08 A3036 RMK A01 T01130083  RH  082%=      5-min Rain = 0
KFL1 111140Z 04004KT 11/08 A3036 RMK A01 T01130084  RH  082%=      5-min Rain = 0
KFL1 111141Z 03004KT 11/08 A3036 RMK A01 T01110081  RH  082%=      5-min Rain = 0
KFL1 111142Z 03004KT 11/08 A3036 RMK A01 T01120080  RH  081%=      5-min Rain = 0
KFL1 111143Z 02004KT 11/08 A3036 RMK A01 T01130080  RH  080%=      5-min Rain = 0
KFL1 111144Z 02005KT 12/08 A3036 RMK A01 T01150081  RH  080%=      5-min Rain = 0
KFL1 111145Z 02006KT 12/08 A3036 RMK A01 T01150083  RH  081%=      5-min Rain = 0
KFL1 111146Z 02007KT 11/08 A3036 RMK A01 T01140083  RH  081%=      5-min Rain = 0
KFL1 111147Z 02006KT 11/08 A3036 RMK A01 T01110082  RH  083%=      5-min Rain = 0
KFL1 111148Z 02007KT 11/08 A3036 RMK A01 T01090082  RH  083%=      5-min Rain = 0
KFL1 111149Z 02007KT 11/08 A3036 RMK A01 T01090083  RH  084%=      5-min Rain = 0
KFL1 111150Z 01007KT 11/08 A3036 RMK A01 T01090083  RH  084%=      5-min Rain = 0
KFL1 111151Z 01008KT 11/08 A3036 RMK A01 T01070081  RH  084%=      5-min Rain = 0
KFL1 111152Z 01008KT 11/08 A3036 RMK A01 T01070081  RH  084%=      5-min Rain = 0
KFL1 111153Z 01008KT 11/08 A3036 RMK A01 T01080081  RH  084%=      5-min Rain = 0
KFL1 111154Z 01007KT 11/08 A3036 RMK A01 T01080082  RH  084%=      5-min Rain = 0
KFL1 111155Z 01006KT 11/08 A3036 RMK A01 T01070082  RH  084%=      5-min Rain = 0
KFL1 111156Z 00005KT 11/08 A3036 RMK A01 T01080082  RH  084%=      5-min Rain = 0
KFL1 111157Z 35004KT 11/08 A3036 RMK A01 T01080082  RH  084%=      5-min Rain = 0
KFL1 111158Z 34003KT 11/08 A3036 RMK A01 T01070083  RH  085%=      5-min Rain = 0
KFL1 111159Z 34003KT 11/08 A3036 RMK A01 T01060082  RH  085%=      5-min Rain = 0
KFL1 111200Z 33003KT 11/08 A3036 RMK A01 T01050082  RH  086%=      5-min Rain = 0
KFL1 111201Z 34003KT 10/08 A3036 RMK A01 T01040081  RH  086%=      5-min Rain = 0
KFL1 111202Z 02003KT 10/08 A3036 RMK A01 T01030081  RH  086%=      5-min Rain = 0
KFL1 111203Z 01003KT 10/08 A3036 RMK A01 T01040080  RH  085%=      5-min Rain = 0
KFL1 111204Z 36003KT 11/08 A3036 RMK A01 T01080081  RH  083%=      5-min Rain = 0
KFL1 111205Z 36004KT 11/08 A3037 RMK A01 T01100081  RH  082%=      5-min Rain = 0
KFL1 111206Z 36004KT 11/08 A3037 RMK A01 T01100080  RH  082%=      5-min Rain = 0
KFL1 111207Z 36003KT 11/08 A3037 RMK A01 T01100081  RH  082%=      5-min Rain = 0
KFL1 111208Z 00004KT 11/08 A3037 RMK A01 T01090081  RH  083%=      5-min Rain = 0
KFL1 111209Z 01005KT 11/08 A3037 RMK A01 T01100081  RH  083%=      5-min Rain = 0
KFL1 111210Z 01005KT 11/08 A3037 RMK A01 T01100081  RH  082%=      5-min Rain = 0
KFL1 111211Z 00004KT 11/08 A3037 RMK A01 T01100081  RH  083%=      5-min Rain = 0
KFL1 111212Z 00005KT 11/08 A3037 RMK A01 T01090080  RH  083%=      5-min Rain = 0
KFL1 111213Z 00005KT 11/08 A3037 RMK A01 T01090080  RH  082%=      5-min Rain = 0
KFL1 111214Z 00004KT 11/08 A3037 RMK A01 T01110079  RH  081%=      5-min Rain = 0
KFL1 111215Z 01004KT 11/08 A3036 RMK A01 T01120079  RH  080%=      5-min Rain = 0
KFL1 111216Z 01005KT 11/08 A3036 RMK A01 T01130079  RH  080%=      5-min Rain = 0
KFL1 111217Z 01004KT 11/08 A3036 RMK A01 T01130078  RH  079%=      5-min Rain = 0
KFL1 111218Z 01004KT 11/08 A3036 RMK A01 T01120077  RH  079%=      5-min Rain = 0
KFL1 111219Z 01004KT 12/08 A3036 RMK A01 T01150079  RH  079%=      5-min Rain = 0
KFL1 111220Z 02005KT 11/08 A3036 RMK A01 T01140078  RH  079%=      5-min Rain = 0
KFL1 111221Z 02005KT 11/08 A3036 RMK A01 T01140079  RH  079%=      5-min Rain = 0
KFL1 111222Z 01005KT 11/08 A3036 RMK A01 T01110079  RH  080%=      5-min Rain = 0
KFL1 111223Z 01005KT 11/08 A3036 RMK A01 T01100080  RH  081%=      5-min Rain = 0
KFL1 111224Z 01005KT 11/08 A3036 RMK A01 T01090080  RH  082%=      5-min Rain = 0
KFL1 111225Z 01005KT 11/08 A3036 RMK A01 T01100080  RH  082%=      5-min Rain = 0
KFL1 111226Z 02005KT 11/08 A3036 RMK A01 T01100080  RH  082%=      5-min Rain = 0
KFL1 111227Z 02005KT 11/08 A3036 RMK A01 T01110081  RH  082%=      5-min Rain = 0
KFL1 111228Z 01005KT 11/08 A3036 RMK A01 T01120081  RH  081%=      5-min Rain = 0
KFL1 111229Z 02005KT 11/08 A3037 RMK A01 T01120081  RH  082%=      5-min Rain = 0
KFL1 111230Z 02005KT 11/08 A3037 RMK A01 T01120083  RH  082%=      5-min Rain = 0
KFL1 111231Z 03005KT 11/08 A3037 RMK A01 T01110080  RH  082%=      5-min Rain = 0
KFL1 111232Z 03004KT 11/08 A3037 RMK A01 T01130083  RH  081%=      5-min Rain = 0
KFL1 111233Z 02004KT 11/08 A3037 RMK A01 T01130083  RH  081%=      5-min Rain = 0
KFL1 111234Z 02006KT 11/08 A3037 RMK A01 T01130083  RH  082%=      5-min Rain = 0
KFL1 111235Z 02007KT 11/08 A3037 RMK A01 T01130084  RH  082%=      5-min Rain = 0
KFL1 111236Z 01006KT 11/09 A3037 RMK A01 T01130085  RH  082%=      5-min Rain = 0
KFL1 111237Z 01006KT 11/09 A3037 RMK A01 T01130085  RH  083%=      5-min Rain = 0
KFL1 111238Z 01006KT 11/09 A3037 RMK A01 T01120085  RH  083%=      5-min Rain = 0
KFL1 111239Z 01005KT 11/09 A3037 RMK A01 T01120085  RH  083%=      5-min Rain = 0
KFL1 111240Z 01005KT 11/09 A3037 RMK A01 T01120085  RH  083%=      5-min Rain = 0
KFL1 111241Z 01005KT 11/09 A3037 RMK A01 T01130086  RH  083%=      5-min Rain = 0
KFL1 111242Z 01005KT 11/09 A3037 RMK A01 T01140087  RH  083%=      5-min Rain = 0
KFL1 111243Z 02006KT 12/09 A3037 RMK A01 T01160088  RH  083%=      5-min Rain = 0
KFL1 111244Z 02006KT 12/09 A3037 RMK A01 T01160086  RH  082%=      5-min Rain = 0
KFL1 111245Z 04004KT 12/09 A3037 RMK A01 T01180085  RH  080%=      5-min Rain = 0
KFL1 111246Z 04003KT 12/09 A3037 RMK A01 T01220086  RH  079%=      5-min Rain = 0
KFL1 111247Z 04004KT 12/09 A3037 RMK A01 T01240085  RH  077%=      5-min Rain = 0
KFL1 111248Z 04004KT 13/09 A3038 RMK A01 T01270088  RH  077%=      5-min Rain = 0
KFL1 111249Z 04004KT 13/09 A3038 RMK A01 T01280087  RH  076%=      5-min Rain = 0
KFL1 111250Z 04004KT 13/09 A3038 RMK A01 T01290085  RH  075%=      5-min Rain = 0
KFL1 111251Z 04004KT 13/09 A3038 RMK A01 T01310086  RH  074%=      5-min Rain = 0
KFL1 111252Z 03004KT 13/09 A3038 RMK A01 T01320085  RH  073%=      5-min Rain = 0
KFL1 111253Z 03004KT 13/09 A3038 RMK A01 T01340086  RH  073%=      5-min Rain = 0
KFL1 111254Z 03004KT 13/09 A3038 RMK A01 T01340087  RH  073%=      5-min Rain = 0
KFL1 111255Z 03004KT 14/09 A3038 RMK A01 T01350087  RH  073%=      5-min Rain = 0
KFL1 111256Z 03004KT 14/09 A3038 RMK A01 T01360088  RH  073%=      5-min Rain = 0
KFL1 111257Z 03003KT 14/09 A3038 RMK A01 T01360089  RH  073%=      5-min Rain = 0
KFL1 111258Z 04003KT 14/09 A3038 RMK A01 T01370089  RH  073%=      5-min Rain = 0
KFL1 111259Z 04003KT 14/09 A3038 RMK A01 T01370089  RH  073%=      5-min Rain = 0
KFL1 111300Z 03003KT 14/09 A3038 RMK A01 T01390091  RH  073%=      5-min Rain = 0
KFL1 111301Z 03002KT 14/09 A3038 RMK A01 T01400092  RH  073%=      5-min Rain = 0
KFL1 111302Z 03002KT 14/09 A3038 RMK A01 T01410093  RH  073%=      5-min Rain = 0
KFL1 111303Z 03003KT 14/09 A3038 RMK A01 T01420094  RH  073%=      5-min Rain = 0
KFL1 111304Z 02005KT 14/10 A3038 RMK A01 T01430096  RH  073%=      5-min Rain = 0
KFL1 111305Z 02006KT 14/10 A3038 RMK A01 T01430097  RH  073%=      5-min Rain = 0
KFL1 111306Z 02006KT 14/09 A3038 RMK A01 T01430094  RH  072%=      5-min Rain = 0
KFL1 111307Z 02006KT 14/09 A3037 RMK A01 T01440094  RH  072%=      5-min Rain = 0
KFL1 111308Z 02006KT 14/10 A3037 RMK A01 T01440097  RH  073%=      5-min Rain = 0
KFL1 111309Z 02006KT 14/10 A3037 RMK A01 T01440097  RH  073%=      5-min Rain = 0
KFL1 111310Z 02005KT 14/10 A3037 RMK A01 T01440098  RH  074%=      5-min Rain = 0
KFL1 111311Z 02005KT 15/10 A3038 RMK A01 T01450100  RH  074%=      5-min Rain = 0
KFL1 111312Z 02005KT 15/10 A3038 RMK A01 T01460099  RH  073%=      5-min Rain = 0
KFL1 111313Z 02005KT 15/10 A3038 RMK A01 T01480099  RH  073%=      5-min Rain = 0
KFL1 111314Z 02005KT 15/10 A3038 RMK A01 T01480098  RH  072%=      5-min Rain = 0
KFL1 111315Z 02005KT 15/10 A3038 RMK A01 T01500100  RH  072%=      5-min Rain = 0
KFL1 111316Z 03005KT 15/10 A3038 RMK A01 T01500099  RH  071%=      5-min Rain = 0
KFL1 111317Z 03004KT 15/10 A3038 RMK A01 T01520099  RH  071%=      5-min Rain = 0
KFL1 111318Z 03003KT 15/10 A3038 RMK A01 T01540099  RH  070%=      5-min Rain = 0
KFL1 111319Z 03003KT 16/10 A3038 RMK A01 T01560101  RH  070%=      5-min Rain = 0
KFL1 111320Z 03004KT 16/10 A3038 RMK A01 T01580101  RH  069%=      5-min Rain = 0
KFL1 111321Z 02004KT 16/10 A3038 RMK A01 T01600101  RH  068%=      5-min Rain = 0
KFL1 111322Z 02004KT 16/10 A3038 RMK A01 T01620101  RH  067%=      5-min Rain = 0
KFL1 111323Z 02004KT 16/10 A3038 RMK A01 T01620099  RH  066%=      5-min Rain = 0
KFL1 111324Z 02005KT 16/10 A3038 RMK A01 T01640101  RH  066%=      5-min Rain = 0
KFL1 111325Z 02005KT 17/10 A3038 RMK A01 T01660102  RH  066%=      5-min Rain = 0
KFL1 111326Z 02005KT 17/10 A3038 RMK A01 T01660101  RH  066%=      5-min Rain = 0
KFL1 111327Z 02004KT 17/10 A3038 RMK A01 T01670102  RH  065%=      5-min Rain = 0
KFL1 111328Z 02004KT 17/10 A3038 RMK A01 T01670102  RH  066%=      5-min Rain = 0
KFL1 111329Z 02004KT 17/10 A3038 RMK A01 T01690104  RH  066%=      5-min Rain = 0
KFL1 111330Z 03004KT 17/10 A3038 RMK A01 T01670101  RH  065%=      5-min Rain = 0
KFL1 111331Z 03004KT 17/10 A3038 RMK A01 T01700104  RH  065%=      5-min Rain = 0
KFL1 111332Z 03003KT 17/10 A3038 RMK A01 T01700104  RH  065%=      5-min Rain = 0
KFL1 111333Z 03003KT 17/10 A3038 RMK A01 T01700104  RH  065%=      5-min Rain = 0
KFL1 111334Z 03003KT 17/11 A3038 RMK A01 T01720108  RH  066%=      5-min Rain = 0
KFL1 111335Z 03002KT 17/11 A3038 RMK A01 T01720107  RH  066%=      5-min Rain = 0
KFL1 111336Z 03002KT 17/11 A3038 RMK A01 T01740108  RH  065%=      5-min Rain = 0
KFL1 111337Z 04002KT 18/11 A3038 RMK A01 T01760108  RH  064%=      5-min Rain = 0
KFL1 111338Z 04001KT 18/11 A3038 RMK A01 T01790111  RH  064%=      5-min Rain = 0
KFL1 111339Z 04001KT 18/11 A3038 RMK A01 T01790110  RH  064%=      5-min Rain = 0
KFL1 111340Z 04002KT 18/11 A3038 RMK A01 T01820112  RH  063%=      5-min Rain = 0
KFL1 111341Z 04002KT 18/11 A3038 RMK A01 T01820109  RH  062%=      5-min Rain = 0
KFL1 111342Z 03002KT 18/11 A3038 RMK A01 T01840112  RH  063%=      5-min Rain = 0
KFL1 111343Z 04003KT 19/11 A3038 RMK A01 T01850114  RH  063%=      5-min Rain = 0
KFL1 111344Z 05003KT 19/11 A3038 RMK A01 T01870114  RH  062%=      5-min Rain = 0
KFL1 111345Z 04003KT 19/11 A3038 RMK A01 T01850111  RH  062%=      5-min Rain = 0
KFL1 111346Z 05003KT 19/11 A3038 RMK A01 T01860110  RH  061%=      5-min Rain = 0
KFL1 111347Z 05003KT 19/11 A3038 RMK A01 T01850110  RH  061%=      5-min Rain = 0
KFL1 111348Z 05003KT 19/11 A3038 RMK A01 T01860110  RH  061%=      5-min Rain = 0
KFL1 111349Z 05003KT 19/11 A3038 RMK A01 T01860109  RH  061%=      5-min Rain = 0
KFL1 111350Z 05003KT 19/11 A3038 RMK A01 T01850107  RH  060%=      5-min Rain = 0
KFL1 111351Z 05003KT 19/11 A3039 RMK A01 T01870110  RH  061%=      5-min Rain = 0
KFL1 111352Z 05002KT 19/11 A3039 RMK A01 T01870108  RH  060%=      5-min Rain = 0
KFL1 111353Z 04002KT 19/11 A3039 RMK A01 T01870110  RH  061%=      5-min Rain = 0
KFL1 111354Z 05002KT 19/11 A3039 RMK A01 T01880111  RH  061%=      5-min Rain = 0
KFL1 111355Z 05001KT 19/11 A3039 RMK A01 T01900114  RH  062%=      5-min Rain = 0
KFL1 111356Z 05001KT 19/11 A3039 RMK A01 T01920114  RH  061%=      5-min Rain = 0
KFL1 111357Z 07001KT 19/11 A3039 RMK A01 T01940113  RH  059%=      5-min Rain = 0
KFL1 111358Z 01001KT 20/12 A3039 RMK A01 T01950115  RH  060%=      5-min Rain = 0
KFL1 111359Z 08000KT 20/11 A3039 RMK A01 T01960108  RH  057%=      5-min Rain = 0
KFL1 111400Z 07001KT 20/11 A3039 RMK A01 T01970109  RH  057%=      5-min Rain = 0
KFL1 111401Z 04001KT 20/11 A3039 RMK A01 T01970111  RH  057%=      5-min Rain = 0
KFL1 111402Z 01001KT 20/11 A3039 RMK A01 T01980110  RH  057%=      5-min Rain = 0
KFL1 111403Z 01000KT 20/11 A3039 RMK A01 T01980110  RH  057%=      5-min Rain = 0
KFL1 111404Z 05000KT 20/11 A3039 RMK A01 T02000111  RH  057%=      5-min Rain = 0
KFL1 111405Z 04001KT 20/09 A3039 RMK A01 T02000090  RH  049%=      5-min Rain = 0
KFL1 111406Z 03001KT 20/10 A3039 RMK A01 T02020096  RH  051%=      5-min Rain = 0
KFL1 111407Z 04001KT 20/11 A3039 RMK A01 T02030108  RH  054%=      5-min Rain = 0
KFL1 111408Z 06000KT 20/11 A3039 RMK A01 T02040107  RH  053%=      5-min Rain = 0
KFL1 111409Z 09001KT 21/11 A3039 RMK A01 T02060106  RH  052%=      5-min Rain = 0
KFL1 111410Z 09001KT 21/11 A3039 RMK A01 T02060105  RH  052%=      5-min Rain = 0
KFL1 111411Z 07002KT 21/11 A3039 RMK A01 T02050108  RH  054%=      5-min Rain = 0
KFL1 111412Z 02000KT 21/10 A3039 RMK A01 T02060102  RH  051%=      5-min Rain = 0
KFL1 111413Z 01001KT 21/10 A3039 RMK A01 T02070103  RH  051%=      5-min Rain = 0
KFL1 111414Z 29001KT 21/11 A3039 RMK A01 T02050106  RH  053%=      5-min Rain = 0
KFL1 111415Z 31001KT 21/11 A3039 RMK A01 T02070108  RH  053%=      5-min Rain = 0
KFL1 111416Z 00001KT 21/11 A3039 RMK A01 T02080105  RH  052%=      5-min Rain = 0
KFL1 111417Z 02002KT 21/11 A3039 RMK A01 T02090105  RH  051%=      5-min Rain = 0
KFL1 111418Z 34001KT 21/10 A3039 RMK A01 T02090101  RH  050%=      5-min Rain = 0
KFL1 111419Z 30002KT 21/10 A3039 RMK A01 T02070097  RH  049%=      5-min Rain = 0
KFL1 111420Z 31001KT 21/09 A3039 RMK A01 T02070094  RH  048%=      5-min Rain = 0
KFL1 111421Z 29001KT 21/09 A3039 RMK A01 T02060092  RH  048%=      5-min Rain = 0
KFL1 111422Z 31002KT 20/10 A3039 RMK A01 T02040095  RH  049%=      5-min Rain = 0
KFL1 111423Z 29003KT 21/10 A3039 RMK A01 T02050102  RH  052%=      5-min Rain = 0
KFL1 111424Z 24002KT 20/10 A3039 RMK A01 T02040102  RH  052%=      5-min Rain = 0
KFL1 111425Z 26002KT 20/10 A3039 RMK A01 T02040102  RH  052%=      5-min Rain = 0
KFL1 111426Z 26002KT 20/10 A3039 RMK A01 T02040101  RH  051%=      5-min Rain = 0
KFL1 111427Z 24002KT 20/10 A3039 RMK A01 T02030098  RH  051%=      5-min Rain = 0
KFL1 111428Z 25002KT 20/10 A3039 RMK A01 T02040097  RH  050%=      5-min Rain = 0
KFL1 111429Z 25001KT 21/10 A3039 RMK A01 T02060099  RH  050%=      5-min Rain = 0
KFL1 111430Z 28002KT 21/09 A3039 RMK A01 T02060093  RH  048%=      5-min Rain = 0
KFL1 111431Z 28002KT 21/10 A3039 RMK A01 T02070100  RH  050%=      5-min Rain = 0
KFL1 111432Z 30001KT 21/10 A3039 RMK A01 T02080100  RH  050%=      5-min Rain = 0
KFL1 111433Z 27001KT 21/10 A3039 RMK A01 T02070099  RH  050%=      5-min Rain = 0
KFL1 111434Z 24002KT 21/10 A3039 RMK A01 T02080102  RH  051%=      5-min Rain = 0
KFL1 111435Z 18002KT 21/10 A3039 RMK A01 T02100104  RH  050%=      5-min Rain = 0
KFL1 111436Z 16003KT 21/10 A3039 RMK A01 T02130097  RH  048%=      5-min Rain = 0
KFL1 111437Z 15001KT 21/09 A3039 RMK A01 T02110091  RH  046%=      5-min Rain = 0
KFL1 111438Z 14001KT 21/10 A3039 RMK A01 T02120097  RH  048%=      5-min Rain = 0
KFL1 111439Z 23000KT 21/10 A3039 RMK A01 T02120100  RH  049%=      5-min Rain = 0
KFL1 111440Z 15001KT 21/10 A3039 RMK A01 T02130098  RH  048%=      5-min Rain = 0
KFL1 111441Z 15002KT 21/10 A3039 RMK A01 T02130103  RH  050%=      5-min Rain = 0
KFL1 111442Z 16002KT 21/11 A3039 RMK A01 T02140112  RH  052%=      5-min Rain = 0
KFL1 111443Z 15002KT 21/11 A3039 RMK A01 T02140108  RH  051%=      5-min Rain = 0
KFL1 111444Z 16004KT 22/11 A3039 RMK A01 T02150109  RH  051%=      5-min Rain = 0
KFL1 111445Z 14004KT 22/11 A3039 RMK A01 T02160108  RH  050%=      5-min Rain = 0
KFL1 111446Z 14003KT 22/10 A3039 RMK A01 T02170104  RH  049%=      5-min Rain = 0
KFL1 111447Z 13002KT 22/10 A3039 RMK A01 T02170102  RH  048%=      5-min Rain = 0
KFL1 111448Z 14003KT 22/10 A3039 RMK A01 T02170103  RH  048%=      5-min Rain = 0
KFL1 111449Z 14003KT 22/11 A3039 RMK A01 T02170108  RH  050%=      5-min Rain = 0
KFL1 111450Z 15003KT 22/10 A3039 RMK A01 T02170104  RH  049%=      5-min Rain = 0
KFL1 111451Z 15003KT 22/10 A3039 RMK A01 T02170099  RH  047%=      5-min Rain = 0
KFL1 111452Z 15004KT 22/10 A3039 RMK A01 T02180104  RH  048%=      5-min Rain = 0
KFL1 111453Z 16003KT 22/10 A3039 RMK A01 T02170104  RH  049%=      5-min Rain = 0
KFL1 111454Z 15003KT 22/10 A3039 RMK A01 T02180103  RH  048%=      5-min Rain = 0
KFL1 111455Z 17005KT 22/11 A3039 RMK A01 T02190109  RH  049%=      5-min Rain = 0
KFL1 111456Z 17003KT 22/10 A3039 RMK A01 T02190100  RH  047%=      5-min Rain = 0
KFL1 111457Z 17004KT 22/10 A3039 RMK A01 T02190101  RH  047%=      5-min Rain = 0
KFL1 111458Z 16004KT 22/10 A3039 RMK A01 T02170102  RH  048%=      5-min Rain = 0
KFL1 111459Z 17003KT 22/10 A3039 RMK A01 T02180103  RH  048%=      5-min Rain = 0
KFL1 111500Z 19002KT 22/11 A3039 RMK A01 T02180110  RH  050%=      5-min Rain = 0
KFL1 111501Z 17002KT 22/11 A3039 RMK A01 T02210112  RH  050%=      5-min Rain = 0
KFL1 111502Z 21003KT 22/11 A3039 RMK A01 T02240108  RH  048%=      5-min Rain = 0
KFL1 111503Z 17002KT 22/10 A3039 RMK A01 T02220104  RH  047%=      5-min Rain = 0
KFL1 111504Z 17003KT 22/10 A3039 RMK A01 T02240104  RH  047%=      5-min Rain = 0
KFL1 111505Z 17004KT 22/10 A3039 RMK A01 T02240100  RH  045%=      5-min Rain = 0
KFL1 111506Z 17003KT 23/10 A3039 RMK A01 T02250100  RH  045%=      5-min Rain = 0
KFL1 111507Z 17004KT 22/10 A3039 RMK A01 T02230099  RH  045%=      5-min Rain = 0
KFL1 111508Z 16003KT 22/09 A3039 RMK A01 T02210093  RH  044%=      5-min Rain = 0
KFL1 111509Z 17004KT 22/10 A3039 RMK A01 T02210101  RH  047%=      5-min Rain = 0
KFL1 111510Z 17003KT 22/10 A3039 RMK A01 T02200099  RH  046%=      5-min Rain = 0
KFL1 111511Z 18004KT 22/09 A3039 RMK A01 T02210094  RH  044%=      5-min Rain = 0
KFL1 111512Z 17003KT 22/09 A3039 RMK A01 T02210089  RH  043%=      5-min Rain = 0
KFL1 111513Z 16001KT 22/09 A3039 RMK A01 T02210092  RH  044%=      5-min Rain = 0
KFL1 111514Z 21002KT 22/10 A3039 RMK A01 T02220100  RH  046%=      5-min Rain = 0
KFL1 111515Z 23004KT 22/10 A3039 RMK A01 T02200098  RH  046%=      5-min Rain = 0
KFL1 111516Z 23003KT 22/10 A3039 RMK A01 T02210102  RH  047%=      5-min Rain = 0
KFL1 111517Z 21003KT 22/11 A3039 RMK A01 T02200109  RH  049%=      5-min Rain = 0
KFL1 111518Z 21004KT 22/10 A3039 RMK A01 T02230103  RH  046%=      5-min Rain = 0
KFL1 111519Z 21003KT 22/10 A3039 RMK A01 T02230095  RH  044%=      5-min Rain = 0
KFL1 111520Z 22003KT 22/10 A3039 RMK A01 T02220099  RH  046%=      5-min Rain = 0
KFL1 111521Z 22002KT 22/10 A3039 RMK A01 T02220099  RH  046%=      5-min Rain = 0
KFL1 111522Z 19004KT 22/10 A3039 RMK A01 T02220097  RH  045%=      5-min Rain = 0
KFL1 111523Z 17003KT 22/10 A3039 RMK A01 T02230097  RH  045%=      5-min Rain = 0
KFL1 111524Z 16003KT 22/10 A3039 RMK A01 T02240100  RH  045%=      5-min Rain = 0
KFL1 111525Z 19003KT 23/11 A3039 RMK A01 T02250106  RH  047%=      5-min Rain = 0
KFL1 111526Z 20004KT 22/10 A3039 RMK A01 T02240101  RH  046%=      5-min Rain = 0
KFL1 111527Z 21005KT 23/10 A3039 RMK A01 T02260101  RH  045%=      5-min Rain = 0
KFL1 111528Z 23004KT 23/10 A3039 RMK A01 T02250101  RH  045%=      5-min Rain = 0
KFL1 111529Z 22004KT 23/11 A3039 RMK A01 T02260106  RH  046%=      5-min Rain = 0
KFL1 111530Z 19004KT 23/10 A3039 RMK A01 T02260101  RH  045%=      5-min Rain = 0
KFL1 111531Z 17003KT 23/10 A3039 RMK A01 T02260101  RH  045%=      5-min Rain = 0
KFL1 111532Z 19004KT 23/10 A3039 RMK A01 T02260102  RH  045%=      5-min Rain = 0
KFL1 111533Z 18005KT 23/10 A3039 RMK A01 T02260103  RH  046%=      5-min Rain = 0
KFL1 111534Z 17004KT 23/11 A3039 RMK A01 T02270106  RH  046%=      5-min Rain = 0
KFL1 111535Z 16005KT 23/11 A3039 RMK A01 T02280105  RH  046%=      5-min Rain = 0
KFL1 111536Z 15003KT 23/10 A3039 RMK A01 T02290104  RH  045%=      5-min Rain = 0
KFL1 111537Z 15002KT 23/10 A3039 RMK A01 T02290102  RH  045%=      5-min Rain = 0
KFL1 111538Z 16002KT 23/10 A3039 RMK A01 T02280100  RH  044%=      5-min Rain = 0
KFL1 111539Z 18002KT 23/10 A3039 RMK A01 T02280103  RH  045%=      5-min Rain = 0
KFL1 111540Z 15003KT 23/10 A3039 RMK A01 T02290100  RH  044%=      5-min Rain = 0
KFL1 111541Z 17003KT 23/10 A3039 RMK A01 T02300100  RH  044%=      5-min Rain = 0
KFL1 111542Z 18006KT 23/10 A3039 RMK A01 T02300102  RH  044%=      5-min Rain = 0
KFL1 111543Z 19004KT 23/10 A3039 RMK A01 T02310098  RH  043%=      5-min Rain = 0
KFL1 111544Z 20002KT 23/10 A3039 RMK A01 T02310097  RH  043%=      5-min Rain = 0
KFL1 111545Z 20003KT 23/10 A3039 RMK A01 T02310101  RH  044%=      5-min Rain = 0
KFL1 111546Z 23004KT 23/10 A3039 RMK A01 T02310098  RH  043%=      5-min Rain = 0
KFL1 111547Z 23005KT 23/10 A3039 RMK A01 T02300100  RH  044%=      5-min Rain = 0
KFL1 111548Z 23004KT 23/10 A3039 RMK A01 T02290100  RH  044%=      5-min Rain = 0
KFL1 111549Z 24004KT 23/10 A3039 RMK A01 T02290103  RH  045%=      5-min Rain = 0
KFL1 111550Z 24003KT 23/11 A3039 RMK A01 T02300107  RH  046%=      5-min Rain = 0
KFL1 111551Z 24004KT 23/10 A3039 RMK A01 T02310096  RH  042%=      5-min Rain = 0
KFL1 111552Z 26003KT 23/10 A3039 RMK A01 T02300099  RH  043%=      5-min Rain = 0
KFL1 111553Z 27002KT 23/10 A3039 RMK A01 T02310102  RH  044%=      5-min Rain = 0
KFL1 111554Z 28001KT 23/10 A3039 RMK A01 T02320100  RH  043%=      5-min Rain = 0
KFL1 111555Z 23001KT 23/10 A3039 RMK A01 T02320097  RH  042%=      5-min Rain = 0
KFL1 111556Z 13002KT 23/09 A3039 RMK A01 T02340094  RH  041%=      5-min Rain = 0
KFL1 111557Z 15003KT 23/10 A3039 RMK A01 T02340098  RH  042%=      5-min Rain = 0
KFL1 111558Z 18002KT 23/09 A3039 RMK A01 T02340091  RH  040%=      5-min Rain = 0
KFL1 111559Z 17003KT 23/10 A3039 RMK A01 T02320095  RH  042%=      5-min Rain = 0
KFL1 111600Z 17003KT 23/09 A3039 RMK A01 T02330090  RH  040%=      5-min Rain = 0
KFL1 111601Z 13002KT 23/09 A3038 RMK A01 T02320089  RH  040%=      5-min Rain = 0
KFL1 111602Z 08003KT 23/09 A3038 RMK A01 T02300088  RH  040%=      5-min Rain = 0
KFL1 111603Z 10005KT 23/10 A3038 RMK A01 T02300095  RH  042%=      5-min Rain = 0
KFL1 111604Z 10002KT 23/09 A3038 RMK A01 T02300089  RH  041%=      5-min Rain = 0
KFL1 111605Z 13003KT 23/09 A3038 RMK A01 T02270094  RH  043%=      5-min Rain = 0
KFL1 111606Z 16002KT 23/09 A3038 RMK A01 T02280093  RH  042%=      5-min Rain = 0
KFL1 111607Z 17002KT 23/09 A3038 RMK A01 T02290091  RH  041%=      5-min Rain = 0
KFL1 111608Z 14002KT 23/10 A3038 RMK A01 T02290096  RH  043%=      5-min Rain = 0
KFL1 111609Z 18002KT 23/10 A3038 RMK A01 T02310097  RH  043%=      5-min Rain = 0
KFL1 111610Z 21002KT 23/10 A3038 RMK A01 T02320096  RH  042%=      5-min Rain = 0
KFL1 111611Z 23001KT 23/10 A3038 RMK A01 T02330098  RH  042%=      5-min Rain = 0
KFL1 111612Z 26000KT 23/10 A3038 RMK A01 T02320098  RH  043%=      5-min Rain = 0
KFL1 111613Z 20001KT 24/10 A3038 RMK A01 T02360103  RH  043%=      5-min Rain = 0
KFL1 111614Z 23002KT 24/11 A3038 RMK A01 T02400105  RH  043%=      5-min Rain = 0
KFL1 111615Z 25002KT 24/10 A3038 RMK A01 T02420097  RH  040%=      5-min Rain = 0
KFL1 111616Z 29001KT 24/10 A3038 RMK A01 T02390095  RH  040%=      5-min Rain = 0
KFL1 111617Z 27000KT 24/10 A3038 RMK A01 T02390097  RH  041%=      5-min Rain = 0
KFL1 111618Z 18001KT 24/09 A3038 RMK A01 T02390091  RH  039%=      5-min Rain = 0
KFL1 111619Z 25002KT 24/10 A3038 RMK A01 T02390096  RH  040%=      5-min Rain = 0
KFL1 111620Z 29002KT 24/10 A3038 RMK A01 T02370097  RH  041%=      5-min Rain = 0
KFL1 111621Z 20004KT 24/10 A3038 RMK A01 T02380100  RH  042%=      5-min Rain = 0
KFL1 111622Z 21005KT 24/10 A3038 RMK A01 T02390096  RH  040%=      5-min Rain = 0
KFL1 111623Z 21004KT 24/09 A3038 RMK A01 T02380090  RH  039%=      5-min Rain = 0
KFL1 111624Z 20003KT 24/10 A3038 RMK A01 T02360096  RH  041%=      5-min Rain = 0
KFL1 111625Z 21004KT 24/10 A3038 RMK A01 T02360101  RH  042%=      5-min Rain = 0
KFL1 111626Z 22003KT 24/10 A3038 RMK A01 T02370095  RH  041%=      5-min Rain = 0
KFL1 111627Z 21003KT 24/09 A3038 RMK A01 T02350090  RH  040%=      5-min Rain = 0
KFL1 111628Z 23002KT 23/09 A3038 RMK A01 T02310085  RH  039%=      5-min Rain = 0
KFL1 111629Z 22001KT 23/09 A3038 RMK A01 T02290088  RH  040%=      5-min Rain = 0
KFL1 111630Z 20002KT 23/10 A3038 RMK A01 T02300098  RH  043%=      5-min Rain = 0
KFL1 111631Z 26001KT 23/10 A3038 RMK A01 T02330099  RH  043%=      5-min Rain = 0
KFL1 111632Z 16003KT 24/10 A3038 RMK A01 T02370098  RH  041%=      5-min Rain = 0
KFL1 111633Z 15003KT 24/10 A3038 RMK A01 T02400095  RH  040%=      5-min Rain = 0
KFL1 111634Z 16003KT 24/09 A3038 RMK A01 T02410090  RH  038%=      5-min Rain = 0
KFL1 111635Z 20002KT 24/10 A3038 RMK A01 T02410097  RH  040%=      5-min Rain = 0
KFL1 111636Z 21001KT 24/09 A3038 RMK A01 T02390091  RH  039%=      5-min Rain = 0
KFL1 111637Z 17001KT 24/10 A3038 RMK A01 T02360095  RH  041%=      5-min Rain = 0
KFL1 111638Z 13003KT 24/10 A3038 RMK A01 T02400100  RH  041%=      5-min Rain = 0
KFL1 111639Z 14002KT 24/09 A3038 RMK A01 T02410094  RH  039%=      5-min Rain = 0
KFL1 111640Z 14002KT 24/10 A3038 RMK A01 T02420099  RH  040%=      5-min Rain = 0
KFL1 111641Z 19002KT 24/10 A3038 RMK A01 T02420097  RH  040%=      5-min Rain = 0
KFL1 111642Z 21003KT 24/10 A3038 RMK A01 T02430097  RH  040%=      5-min Rain = 0
KFL1 111643Z 22004KT 24/10 A3038 RMK A01 T02440099  RH  040%=      5-min Rain = 0
KFL1 111644Z 19003KT 25/11 A3038 RMK A01 T02450105  RH  041%=      5-min Rain = 0
KFL1 111645Z 19003KT 25/10 A3038 RMK A01 T02470104  RH  040%=      5-min Rain = 0
KFL1 111646Z 20001KT 25/10 A3038 RMK A01 T02480102  RH  040%=      5-min Rain = 0
KFL1 111647Z 23003KT 25/11 A3038 RMK A01 T02480109  RH  042%=      5-min Rain = 0
KFL1 111648Z 22005KT 25/11 A3038 RMK A01 T02480106  RH  041%=      5-min Rain = 0
KFL1 111649Z 23004KT 25/10 A3038 RMK A01 T02450098  RH  039%=      5-min Rain = 0
KFL1 111650Z 20006KT 25/10 A3038 RMK A01 T02450097  RH  039%=      5-min Rain = 0
KFL1 111651Z 22005KT 24/10 A3038 RMK A01 T02430097  RH  040%=      5-min Rain = 0
KFL1 111652Z 23005KT 24/10 A3038 RMK A01 T02430103  RH  041%=      5-min Rain = 0
KFL1 111653Z 20005KT 24/11 A3038 RMK A01 T02440105  RH  041%=      5-min Rain = 0
KFL1 111654Z 20004KT 25/10 A3038 RMK A01 T02450096  RH  039%=      5-min Rain = 0
KFL1 111655Z 18003KT 25/09 A3038 RMK A01 T02460094  RH  038%=      5-min Rain = 0
KFL1 111656Z 17003KT 25/09 A3038 RMK A01 T02470092  RH  037%=      5-min Rain = 0
KFL1 111657Z 17005KT 25/09 A3038 RMK A01 T02470091  RH  037%=      5-min Rain = 0
KFL1 111658Z 15004KT 25/09 A3038 RMK A01 T02450086  RH  036%=      5-min Rain = 0
KFL1 111659Z 14003KT 25/09 A3038 RMK A01 T02450088  RH  037%=      5-min Rain = 0
KFL1 111700Z 15004KT 24/09 A3038 RMK A01 T02430087  RH  037%=      5-min Rain = 0
KFL1 111701Z 15003KT 24/09 A3038 RMK A01 T02430087  RH  037%=      5-min Rain = 0
KFL1 111702Z 15003KT 24/09 A3038 RMK A01 T02420094  RH  039%=      5-min Rain = 0
KFL1 111703Z 16004KT 25/10 A3038 RMK A01 T02460098  RH  039%=      5-min Rain = 0
KFL1 111704Z 16004KT 25/09 A3038 RMK A01 T02500091  RH  037%=      5-min Rain = 0
KFL1 111705Z 15003KT 25/09 A3038 RMK A01 T02490094  RH  038%=      5-min Rain = 0
KFL1 111706Z 16002KT 25/09 A3038 RMK A01 T02480086  RH  036%=      5-min Rain = 0
KFL1 111707Z 18003KT 25/09 A3038 RMK A01 T02450091  RH  037%=      5-min Rain = 0
KFL1 111708Z 17003KT 25/10 A3038 RMK A01 T02460098  RH  039%=      5-min Rain = 0
KFL1 111709Z 17003KT 25/09 A3038 RMK A01 T02500090  RH  036%=      5-min Rain = 0
KFL1 111710Z 14002KT 25/09 A3038 RMK A01 T02500091  RH  036%=      5-min Rain = 0
KFL1 111711Z 18002G7KT 25/09 A3038 RMK A01 T02530094  RH  037%=      5-min Rain = 0
KFL1 111712Z 18003KT 25/09 A3038 RMK A01 T02540092  RH  036%=      5-min Rain = 0
KFL1 111713Z 20004KT 26/09 A3038 RMK A01 T02560090  RH  035%=      5-min Rain = 0
KFL1 111714Z 20003KT 25/09 A3038 RMK A01 T02540086  RH  034%=      5-min Rain = 0
KFL1 111715Z 17003KT 25/09 A3038 RMK A01 T02530093  RH  036%=      5-min Rain = 0
KFL1 111716Z 17003KT 26/09 A3038 RMK A01 T02550090  RH  035%=      5-min Rain = 0
KFL1 111717Z 17004KT 26/10 A3038 RMK A01 T02550099  RH  037%=      5-min Rain = 0
KFL1 111718Z 16004KT 26/09 A3038 RMK A01 T02560091  RH  035%=      5-min Rain = 0
KFL1 111719Z 18004KT 26/10 A3038 RMK A01 T02590097  RH  036%=      5-min Rain = 0
KFL1 111720Z 21005KT 26/10 A3038 RMK A01 T02590100  RH  037%=      5-min Rain = 0
KFL1 111721Z 21007KT 26/10 A3038 RMK A01 T02580096  RH  036%=      5-min Rain = 0
KFL1 111722Z 21006KT 26/09 A3038 RMK A01 T02590094  RH  035%=      5-min Rain = 0
KFL1 111723Z 22004KT 26/09 A3038 RMK A01 T02570092  RH  035%=      5-min Rain = 0
KFL1 111724Z 24003KT 25/09 A3038 RMK A01 T02540088  RH  035%=      5-min Rain = 0
KFL1 111725Z 25003KT 25/09 A3037 RMK A01 T02520090  RH  036%=      5-min Rain = 0
KFL1 111726Z 23003KT 25/09 A3037 RMK A01 T02520090  RH  036%=      5-min Rain = 0
KFL1 111727Z 27004KT 25/09 A3037 RMK A01 T02510091  RH  036%=      5-min Rain = 0
KFL1 111728Z 19004KT 25/09 A3037 RMK A01 T02520094  RH  037%=      5-min Rain = 0
KFL1 111729Z 19005KT 25/10 A3037 RMK A01 T02530100  RH  038%=      5-min Rain = 0
KFL1 111730Z 23003KT 26/10 A3037 RMK A01 T02550097  RH  037%=      5-min Rain = 0
KFL1 111731Z 16004KT 26/09 A3037 RMK A01 T02570093  RH  035%=      5-min Rain = 0
KFL1 111732Z 18004KT 26/10 A3037 RMK A01 T02610101  RH  037%=      5-min Rain = 0
KFL1 111733Z 16005KT 26/10 A3037 RMK A01 T02630100  RH  036%=      5-min Rain = 0
KFL1 111734Z 16006KT 27/10 A3037 RMK A01 T02660098  RH  035%=      5-min Rain = 0
KFL1 111735Z 16007KT 26/09 A3037 RMK A01 T02630088  RH  033%=      5-min Rain = 0
KFL1 111736Z 16005KT 26/09 A3037 RMK A01 T02560085  RH  034%=      5-min Rain = 0
KFL1 111737Z 17003KT 26/10 A3037 RMK A01 T02550095  RH  036%=      5-min Rain = 0
KFL1 111738Z 22007KT 26/09 A3037 RMK A01 T02550094  RH  036%=      5-min Rain = 0
KFL1 111739Z 21004KT 26/09 A3037 RMK A01 T02570093  RH  035%=      5-min Rain = 0
KFL1 111740Z 21006KT 26/09 A3037 RMK A01 T02570093  RH  035%=      5-min Rain = 0
KFL1 111741Z 23004KT 26/09 A3037 RMK A01 T02560088  RH  034%=      5-min Rain = 0
KFL1 111742Z 23003KT 26/10 A3036 RMK A01 T02550098  RH  037%=      5-min Rain = 0
KFL1 111743Z 24004KT 26/10 A3036 RMK A01 T02560098  RH  037%=      5-min Rain = 0
KFL1 111744Z 25002KT 26/10 A3036 RMK A01 T02580096  RH  036%=      5-min Rain = 0
KFL1 111745Z 26003KT 26/09 A3036 RMK A01 T02580089  RH  034%=      5-min Rain = 0
KFL1 111746Z 27001KT 26/10 A3036 RMK A01 T02580095  RH  036%=      5-min Rain = 0
KFL1 111747Z 15002KT 26/09 A3036 RMK A01 T02610094  RH  035%=      5-min Rain = 0
KFL1 111748Z 16005KT 26/10 A3036 RMK A01 T02620098  RH  036%=      5-min Rain = 0
KFL1 111749Z 16005KT 26/10 A3036 RMK A01 T02630095  RH  035%=      5-min Rain = 0
KFL1 111750Z 14006KT 26/10 A3036 RMK A01 T02640095  RH  035%=      5-min Rain = 0
KFL1 111751Z 14007KT 26/09 A3036 RMK A01 T02620090  RH  034%=      5-min Rain = 0
KFL1 111752Z 15006KT 26/10 A3036 RMK A01 T02620100  RH  036%=      5-min Rain = 0
KFL1 111753Z 13006KT 27/10 A3036 RMK A01 T02660099  RH  035%=      5-min Rain = 0
KFL1 111754Z 11007KT 27/09 A3036 RMK A01 T02700094  RH  033%=      5-min Rain = 0
KFL1 111755Z 12007KT 27/09 A3036 RMK A01 T02670091  RH  033%=      5-min Rain = 0
KFL1 111756Z 10004KT 26/08 A3036 RMK A01 T02630084  RH  032%=      5-min Rain = 0
KFL1 111757Z 10003KT 26/09 A3036 RMK A01 T02570085  RH  034%=      5-min Rain = 0
KFL1 111758Z 11004KT 26/09 A3036 RMK A01 T02550093  RH  036%=      5-min Rain = 0
KFL1 111759Z 15006KT 26/10 A3036 RMK A01 T02610096  RH  035%=      5-min Rain = 0
KFL1 111800Z 14004KT 26/09 A3036 RMK A01 T02620090  RH  034%=      5-min Rain = 0
KFL1 111801Z 14004KT 26/10 A3036 RMK A01 T02640097  RH  035%=      5-min Rain = 0
KFL1 111802Z 15005KT 27/10 A3036 RMK A01 T02700095  RH  033%=      5-min Rain = 0
KFL1 111803Z 15004KT 27/09 A3036 RMK A01 T02730092  RH  032%=      5-min Rain = 0
KFL1 111804Z 15003KT 27/09 A3036 RMK A01 T02710085  RH  031%=      5-min Rain = 0
KFL1 111805Z 16004KT 27/09 A3036 RMK A01 T02710086  RH  031%=      5-min Rain = 0
KFL1 111806Z 15003KT 27/08 A3036 RMK A01 T02680084  RH  031%=      5-min Rain = 0
KFL1 111807Z 17001KT 27/08 A3036 RMK A01 T02680084  RH  031%=      5-min Rain = 0
KFL1 111808Z 21003KT 27/10 A3036 RMK A01 T02670095  RH  034%=      5-min Rain = 0
KFL1 111809Z 22006KT 27/10 A3036 RMK A01 T02660101  RH  035%=      5-min Rain = 0
KFL1 111810Z 22004KT 27/10 A3036 RMK A01 T02680103  RH  036%=      5-min Rain = 0
KFL1 111811Z 24004KT 27/09 A3036 RMK A01 T02700090  RH  032%=      5-min Rain = 0
KFL1 111812Z 24005KT 27/10 A3036 RMK A01 T02690095  RH  033%=      5-min Rain = 0
KFL1 111813Z 24005KT 27/10 A3036 RMK A01 T02680098  RH  034%=      5-min Rain = 0
KFL1 111814Z 24005KT 27/10 A3036 RMK A01 T02670099  RH  035%=      5-min Rain = 0
KFL1 111815Z 25005KT 26/10 A3036 RMK A01 T02640097  RH  035%=      5-min Rain = 0
KFL1 111816Z 27003KT 26/09 A3036 RMK A01 T02640094  RH  034%=      5-min Rain = 0
KFL1 111817Z 29003KT 27/09 A3036 RMK A01 T02650092  RH  034%=      5-min Rain = 0
KFL1 111818Z 33002KT 26/09 A3036 RMK A01 T02630087  RH  033%=      5-min Rain = 0
KFL1 111819Z 35003KT 26/08 A3036 RMK A01 T02600083  RH  033%=      5-min Rain = 0
KFL1 111820Z 34003KT 26/09 A3036 RMK A01 T02590089  RH  034%=      5-min Rain = 0
KFL1 111821Z 23003KT 26/10 A3036 RMK A01 T02610096  RH  035%=      5-min Rain = 0
KFL1 111822Z 21005KT 26/10 A3036 RMK A01 T02640097  RH  035%=      5-min Rain = 0
KFL1 111823Z 18007KT 27/09 A3035 RMK A01 T02680094  RH  033%=      5-min Rain = 0
KFL1 111824Z 17007KT 27/09 A3035 RMK A01 T02680092  RH  033%=      5-min Rain = 0
KFL1 111825Z 20006KT 27/09 A3036 RMK A01 T02700093  RH  033%=      5-min Rain = 0
KFL1 111826Z 22006KT 27/10 A3035 RMK A01 T02690096  RH  034%=      5-min Rain = 0
KFL1 111827Z 23006KT 27/10 A3035 RMK A01 T02710103  RH  035%=      5-min Rain = 0
KFL1 111828Z 24005KT 27/10 A3035 RMK A01 T02710103  RH  035%=      5-min Rain = 0
KFL1 111829Z 22004KT 27/09 A3035 RMK A01 T02710093  RH  032%=      5-min Rain = 0
KFL1 111830Z 20004KT 27/09 A3035 RMK A01 T02700090  RH  032%=      5-min Rain = 0
KFL1 111831Z 17005KT 27/10 A3035 RMK A01 T02700095  RH  033%=      5-min Rain = 0
KFL1 111832Z 14003KT 27/08 A3035 RMK A01 T02710083  RH  031%=      5-min Rain = 0
KFL1 111833Z 15004KT 27/09 A3035 RMK A01 T02690086  RH  031%=      5-min Rain = 0
KFL1 111834Z 19007KT 27/10 A3035 RMK A01 T02690095  RH  034%=      5-min Rain = 0
KFL1 111835Z 17005KT 27/09 A3035 RMK A01 T02700092  RH  033%=      5-min Rain = 0
KFL1 111836Z 18007KT 28/10 A3035 RMK A01 T02750099  RH  033%=      5-min Rain = 0
KFL1 111837Z 18008KT 28/10 A3035 RMK A01 T02770095  RH  032%=      5-min Rain = 0
KFL1 111838Z 20005G10KT 28/09 A3035 RMK A01 T02760089  RH  031%=      5-min Rain = 0
KFL1 111839Z 20009KT 28/10 A3035 RMK A01 T02760099  RH  033%=      5-min Rain = 0
KFL1 111840Z 21008KT 28/09 A3035 RMK A01 T02770092  RH  031%=      5-min Rain = 0
KFL1 111841Z 22006KT 28/09 A3035 RMK A01 T02760089  RH  031%=      5-min Rain = 0
KFL1 111842Z 17005KT 27/10 A3035 RMK A01 T02730098  RH  033%=      5-min Rain = 0
KFL1 111843Z 20006KT 28/09 A3035 RMK A01 T02760094  RH  032%=      5-min Rain = 0
KFL1 111844Z 18004KT 28/10 A3035 RMK A01 T02790096  RH  032%=      5-min Rain = 0
KFL1 111845Z 17006KT 28/10 A3035 RMK A01 T02800095  RH  031%=      5-min Rain = 0
KFL1 111846Z 17006KT 28/09 A3035 RMK A01 T02780089  RH  031%=      5-min Rain = 0
KFL1 111847Z 13002KT 27/08 A3034 RMK A01 T02720080  RH  030%=      5-min Rain = 0
KFL1 111848Z 09002KT 27/09 A3034 RMK A01 T02660086  RH  032%=      5-min Rain = 0
KFL1 111849Z 16004KT 27/09 A3034 RMK A01 T02680091  RH  033%=      5-min Rain = 0
KFL1 111850Z 17005KT 27/09 A3034 RMK A01 T02710087  RH  031%=      5-min Rain = 0
KFL1 111851Z 16004KT 27/09 A3034 RMK A01 T02710091  RH  032%=      5-min Rain = 0
KFL1 111852Z 16003KT 27/09 A3034 RMK A01 T02720085  RH  031%=      5-min Rain = 0
KFL1 111853Z 16007G12KT 27/09 A3034 RMK A01 T02710089  RH  032%=      5-min Rain = 0
KFL1 111854Z 17006KT 27/09 A3034 RMK A01 T02710087  RH  031%=      5-min Rain = 0
KFL1 111855Z 17003KT 27/09 A3034 RMK A01 T02730091  RH  032%=      5-min Rain = 0
KFL1 111856Z 22009G14KT 28/09 A3034 RMK A01 T02750094  RH  032%=      5-min Rain = 0
KFL1 111857Z 20007KT 28/09 A3034 RMK A01 T02750087  RH  031%=      5-min Rain = 0
KFL1 111858Z 18004KT 28/09 A3034 RMK A01 T02750088  RH  031%=      5-min Rain = 0
KFL1 111859Z 21004KT 28/09 A3034 RMK A01 T02780091  RH  031%=      5-min Rain = 0
KFL1 111900Z 21005KT 28/09 A3034 RMK A01 T02810089  RH  030%=      5-min Rain = 0
KFL1 111901Z 19003KT 28/09 A3034 RMK A01 T02800089  RH  030%=      5-min Rain = 0
KFL1 111902Z 20003KT 28/09 A3034 RMK A01 T02820087  RH  029%=      5-min Rain = 0
KFL1 111903Z 24003KT 28/09 A3034 RMK A01 T02820085  RH  029%=      5-min Rain = 0
KFL1 111904Z 28002KT 28/08 A3034 RMK A01 T02790082  RH  029%=      5-min Rain = 0
KFL1 111905Z 30000KT 28/09 A3034 RMK A01 T02790085  RH  030%=      5-min Rain = 0
KFL1 111906Z 23001KT 28/08 A3034 RMK A01 T02820083  RH  029%=      5-min Rain = 0
KFL1 111907Z 21002KT 28/08 A3034 RMK A01 T02810079  RH  028%=      5-min Rain = 0
KFL1 111908Z 23003KT 28/09 A3033 RMK A01 T02800088  RH  030%=      5-min Rain = 0
KFL1 111909Z 23004KT 28/10 A3033 RMK A01 T02800100  RH  032%=      5-min Rain = 0
KFL1 111910Z 23006KT 29/10 A3033 RMK A01 T02860103  RH  032%=      5-min Rain = 0
KFL1 111911Z 23006KT 29/10 A3033 RMK A01 T02860099  RH  031%=      5-min Rain = 0
KFL1 111912Z 24008KT 29/10 A3033 RMK A01 T02890103  RH  031%=      5-min Rain = 0
KFL1 111913Z 23005KT 29/09 A3033 RMK A01 T02880091  RH  029%=      5-min Rain = 0
KFL1 111914Z 24004KT 28/09 A3033 RMK A01 T02830086  RH  029%=      5-min Rain = 0
KFL1 111915Z 27003KT 28/08 A3033 RMK A01 T02800082  RH  029%=      5-min Rain = 0
KFL1 111916Z 31002KT 28/08 A3033 RMK A01 T02750080  RH  029%=      5-min Rain = 0
KFL1 111917Z 18006G11KT 27/09 A3033 RMK A01 T02740085  RH  030%=      5-min Rain = 0
KFL1 111918Z 18007KT 28/08 A3033 RMK A01 T02770079  RH  029%=      5-min Rain = 0
KFL1 111919Z 17006KT 28/08 A3033 RMK A01 T02780080  RH  029%=      5-min Rain = 0
KFL1 111920Z 19007KT 28/09 A3033 RMK A01 T02790089  RH  030%=      5-min Rain = 0
KFL1 111921Z 18007KT 28/09 A3033 RMK A01 T02840090  RH  030%=      5-min Rain = 0
KFL1 111922Z 17005KT 29/09 A3033 RMK A01 T02870086  RH  028%=      5-min Rain = 0
KFL1 111923Z 14004KT 29/08 A3033 RMK A01 T02860077  RH  027%=      5-min Rain = 0
KFL1 111924Z 13003KT 28/08 A3033 RMK A01 T02770075  RH  028%=      5-min Rain = 0
KFL1 111925Z 18004KT 27/08 A3032 RMK A01 T02710083  RH  031%=      5-min Rain = 0
KFL1 111926Z 18006KT 28/10 A3032 RMK A01 T02770096  RH  032%=      5-min Rain = 0
KFL1 111927Z 18007KT 29/10 A3032 RMK A01 T02850095  RH  031%=      5-min Rain = 0
KFL1 111928Z 21008KT 29/09 A3032 RMK A01 T02870091  RH  029%=      5-min Rain = 0
KFL1 111929Z 20006KT 29/09 A3032 RMK A01 T02890091  RH  029%=      5-min Rain = 0
KFL1 111930Z 21005KT 29/08 A3032 RMK A01 T02890082  RH  027%=      5-min Rain = 0
KFL1 111931Z 21002KT 29/08 A3032 RMK A01 T02860080  RH  027%=      5-min Rain = 0
KFL1 111932Z 16003KT 28/08 A3032 RMK A01 T02840080  RH  028%=      5-min Rain = 0
KFL1 111933Z 16004KT 28/07 A3032 RMK A01 T02840074  RH  027%=      5-min Rain = 0
KFL1 111934Z 16005KT 28/08 A3032 RMK A01 T02790075  RH  028%=      5-min Rain = 0
KFL1 111935Z 18006KT 28/09 A3032 RMK A01 T02790086  RH  030%=      5-min Rain = 0
KFL1 111936Z 16004KT 29/08 A3032 RMK A01 T02850080  RH  028%=      5-min Rain = 0
KFL1 111937Z 18004KT 29/09 A3032 RMK A01 T02870087  RH  029%=      5-min Rain = 0
KFL1 111938Z 18003KT 29/08 A3032 RMK A01 T02900075  RH  026%=      5-min Rain = 0
KFL1 111939Z 21005KT 29/09 A3032 RMK A01 T02920086  RH  027%=      5-min Rain = 0
KFL1 111940Z 19004KT 29/08 A3032 RMK A01 T02910084  RH  027%=      5-min Rain = 0
KFL1 111941Z 21005KT 30/09 A3032 RMK A01 T02950087  RH  027%=      5-min Rain = 0
KFL1 111942Z 24004KT 30/08 A3032 RMK A01 T02950082  RH  026%=      5-min Rain = 0
KFL1 111943Z 17005KT 29/08 A3032 RMK A01 T02920081  RH  027%=      5-min Rain = 0
KFL1 111944Z 18004KT 29/08 A3032 RMK A01 T02910081  RH  027%=      5-min Rain = 0
KFL1 111945Z 19006KT 29/08 A3032 RMK A01 T02920082  RH  027%=      5-min Rain = 0
KFL1 111946Z 22007KT 30/09 A3031 RMK A01 T02960091  RH  028%=      5-min Rain = 0
KFL1 111947Z 20007KT 30/09 A3031 RMK A01 T02990094  RH  028%=      5-min Rain = 0
KFL1 111948Z 18006KT 30/08 A3031 RMK A01 T02990077  RH  025%=      5-min Rain = 0
KFL1 111949Z 17005G10KT 30/08 A3031 RMK A01 T02950076  RH  025%=      5-min Rain = 0
KFL1 111950Z 19005KT 29/08 A3031 RMK A01 T02930083  RH  027%=      5-min Rain = 0
KFL1 111951Z 19005KT 30/09 A3031 RMK A01 T02960086  RH  027%=      5-min Rain = 0
KFL1 111952Z 16003KT 30/08 A3031 RMK A01 T02980080  RH  025%=      5-min Rain = 0
KFL1 111953Z 19004KT 30/08 A3031 RMK A01 T03010079  RH  025%=      5-min Rain = 0
KFL1 111954Z 20005KT 30/08 A3031 RMK A01 T03000083  RH  026%=      5-min Rain = 0
KFL1 111955Z 18005KT 30/08 A3031 RMK A01 T03000079  RH  025%=      5-min Rain = 0
KFL1 111956Z 18004KT 30/07 A3031 RMK A01 T02990070  RH  024%=      5-min Rain = 0
KFL1 111957Z 20002KT 30/07 A3031 RMK A01 T02980071  RH  024%=      5-min Rain = 0
KFL1 111958Z 28002KT 30/07 A3031 RMK A01 T02960065  RH  023%=      5-min Rain = 0
KFL1 111959Z 27001KT 29/06 A3031 RMK A01 T02890061  RH  024%=      5-min Rain = 0
KFL1 112000Z 05003KT 29/07 A3031 RMK A01 T02860070  RH  026%=      5-min Rain = 0
KFL1 112001Z 03002KT 29/06 A3031 RMK A01 T02850064  RH  025%=      5-min Rain = 0
KFL1 112002Z 03003KT 29/07 A3031 RMK A01 T02860067  RH  025%=      5-min Rain = 0
KFL1 112003Z 08003KT 29/07 A3031 RMK A01 T02850074  RH  026%=      5-min Rain = 0
KFL1 112004Z 12003KT 29/07 A3031 RMK A01 T02870069  RH  025%=      5-min Rain = 0
KFL1 112005Z 11002KT 29/07 A303 RMK A01 T02850074  RH  026%=      5-min Rain = 0
KFL1 112006Z 13004KT 29/08 A303 RMK A01 T02850081  RH  028%=      5-min Rain = 0
KFL1 112007Z 13003KT 29/09 A303 RMK A01 T02890087  RH  028%=      5-min Rain = 0
KFL1 112008Z 11004KT 29/08 A303 RMK A01 T02930084  RH  027%=      5-min Rain = 0
KFL1 112009Z 13003KT 30/08 A303 RMK A01 T02950084  RH  027%=      5-min Rain = 0
KFL1 112010Z 14006KT 30/08 A303 RMK A01 T02970077  RH  025%=      5-min Rain = 0
KFL1 112011Z 11004KT 30/08 A303 RMK A01 T02950078  RH  026%=      5-min Rain = 0
KFL1 112012Z 15003KT 29/08 A303 RMK A01 T02940076  RH  026%=      5-min Rain = 0
KFL1 112013Z 19002KT 29/08 A303 RMK A01 T02930077  RH  026%=      5-min Rain = 0
KFL1 112014Z 17004KT 29/08 A303 RMK A01 T02910084  RH  027%=      5-min Rain = 0
KFL1 112015Z 18006KT 29/08 A303 RMK A01 T02940082  RH  027%=      5-min Rain = 0
KFL1 112016Z 18003KT 30/08 A303 RMK A01 T02950078  RH  026%=      5-min Rain = 0
KFL1 112017Z 09001KT 30/08 A303 RMK A01 T02970078  RH  025%=      5-min Rain = 0
KFL1 112018Z 18004KT 30/08 A303 RMK A01 T03000083  RH  026%=      5-min Rain = 0
KFL1 112019Z 17006KT 30/09 A303 RMK A01 T03000086  RH  026%=      5-min Rain = 0
KFL1 112020Z 15005KT 30/08 A3029 RMK A01 T03020079  RH  025%=      5-min Rain = 0
KFL1 112021Z 16004KT 30/08 A3029 RMK A01 T03010079  RH  025%=      5-min Rain = 0
KFL1 112022Z 13002KT 30/08 A3029 RMK A01 T03010077  RH  025%=      5-min Rain = 0
KFL1 112023Z 17003KT 30/09 A3029 RMK A01 T03030086  RH  026%=      5-min Rain = 0
KFL1 112024Z 17003KT 31/08 A303 RMK A01 T03060083  RH  025%=      5-min Rain = 0
KFL1 112025Z 08005KT 31/08 A303 RMK A01 T03070083  RH  025%=      5-min Rain = 0
KFL1 112026Z 08008KT 30/08 A303 RMK A01 T03040081  RH  025%=      5-min Rain = 0
KFL1 112027Z 04008KT 29/08 A303 RMK A01 T02920084  RH  027%=      5-min Rain = 0
KFL1 112028Z 02011KT 28/08 A303 RMK A01 T02800082  RH  029%=      5-min Rain = 0
KFL1 112029Z 03012G17KT 27/08 A303 RMK A01 T02710082  RH  030%=      5-min Rain = 0
KFL1 112030Z 03011KT 26/08 A303 RMK A01 T02640080  RH  031%=      5-min Rain = 0
KFL1 112031Z 05009KT 26/08 A303 RMK A01 T02580081  RH  033%=      5-min Rain = 0
KFL1 112032Z 07009KT 26/08 A303 RMK A01 T02550084  RH  034%=      5-min Rain = 0
KFL1 112033Z 07009KT 25/08 A303 RMK A01 T02510084  RH  034%=      5-min Rain = 0
KFL1 112034Z 04008KT 25/08 A303 RMK A01 T02490084  RH  035%=      5-min Rain = 0
KFL1 112035Z 04009KT 25/09 A303 RMK A01 T02490087  RH  036%=      5-min Rain = 0
KFL1 112036Z 05012KT 25/08 A303 RMK A01 T02480084  RH  035%=      5-min Rain = 0
KFL1 112037Z 04011KT 25/08 A303 RMK A01 T02480083  RH  035%=      5-min Rain = 0
KFL1 112038Z 04012KT 25/08 A303 RMK A01 T02450083  RH  035%=      5-min Rain = 0
KFL1 112039Z 04010KT 24/08 A303 RMK A01 T02430083  RH  036%=      5-min Rain = 0
KFL1 112040Z 03011KT 24/08 A303 RMK A01 T02420083  RH  036%=      5-min Rain = 0
KFL1 112041Z 04011KT 24/08 A303 RMK A01 T02390081  RH  036%=      5-min Rain = 0
KFL1 112042Z 03012KT 24/08 A303 RMK A01 T02370080  RH  037%=      5-min Rain = 0
KFL1 112043Z 03009KT 24/08 A303 RMK A01 T02350077  RH  036%=      5-min Rain = 0
KFL1 112044Z 04007KT 24/08 A303 RMK A01 T02350079  RH  037%=      5-min Rain = 0
KFL1 112045Z 03007KT 23/08 A303 RMK A01 T02340079  RH  037%=      5-min Rain = 0
KFL1 112046Z 04009KT 24/08 A303 RMK A01 T02360080  RH  037%=      5-min Rain = 0
KFL1 112047Z 02012G19KT 24/07 A303 RMK A01 T02350073  RH  035%=      5-min Rain = 0
KFL1 112048Z 03016KT 24/07 A303 RMK A01 T02350068  RH  034%=      5-min Rain = 0
KFL1 112049Z 03011KT 23/06 A303 RMK A01 T02340063  RH  033%=      5-min Rain = 0
KFL1 112050Z 02015KT 23/07 A303 RMK A01 T02340065  RH  034%=      5-min Rain = 0
KFL1 112051Z 02014KT 23/07 A303 RMK A01 T02320067  RH  035%=      5-min Rain = 0
KFL1 112052Z 01014KT 23/06 A303 RMK A01 T02310063  RH  034%=      5-min Rain = 0
KFL1 112053Z 02012KT 23/06 A303 RMK A01 T02320063  RH  034%=      5-min Rain = 0
KFL1 112054Z 02013G19KT 23/06 A303 RMK A01 T02320062  RH  033%=      5-min Rain = 0
KFL1 112055Z 02013KT 23/05 A303 RMK A01 T02310050  RH  031%=      5-min Rain = 0
KFL1 112056Z 03012G17KT 23/05 A303 RMK A01 T02320047  RH  030%=      5-min Rain = 0
KFL1 112057Z 02012KT 23/05 A303 RMK A01 T02320047  RH  030%=      5-min Rain = 0
KFL1 112058Z 02014KT 23/05 A303 RMK A01 T02320046  RH  030%=      5-min Rain = 0
KFL1 112059Z 02015KT 23/05 A303 RMK A01 T02340046  RH  029%=      5-min Rain = 0
KFL1 112100Z 03012G18KT 23/05 A303 RMK A01 T02340047  RH  030%=      5-min Rain = 0
KFL1 112101Z 04012G17KT 23/05 A303 RMK A01 T02330045  RH  029%=      5-min Rain = 0
KFL1 112102Z 04010KT 23/04 A303 RMK A01 T02340044  RH  029%=      5-min Rain = 0
KFL1 112103Z 04010G15KT 23/05 A303 RMK A01 T02340047  RH  030%=      5-min Rain = 0
KFL1 112104Z 04010G15KT 23/05 A303 RMK A01 T02320046  RH  030%=      5-min Rain = 0
KFL1 112105Z 04009KT 23/05 A303 RMK A01 T02320048  RH  030%=      5-min Rain = 0
KFL1 112106Z 04010KT 23/05 A303 RMK A01 T02330046  RH  030%=      5-min Rain = 0
KFL1 112107Z 05010KT 23/05 A303 RMK A01 T02310046  RH  030%=      5-min Rain = 0
KFL1 112108Z 06008G16KT 23/05 A303 RMK A01 T02300045  RH  030%=      5-min Rain = 0
KFL1 112109Z 08010G16KT 23/04 A303 RMK A01 T02320043  RH  029%=      5-min Rain = 0
KFL1 112110Z 09012G18KT 23/05 A303 RMK A01 T02330047  RH  030%=      5-min Rain = 0
KFL1 112111Z 08016KT 23/06 A303 RMK A01 T02310057  RH  032%=      5-min Rain = 0
KFL1 112112Z 08019G26KT 23/06 A303 RMK A01 T02250062  RH  035%=      5-min Rain = 0
KFL1 112113Z 08015G20KT 22/06 A303 RMK A01 T02200060  RH  035%=      5-min Rain = 0
KFL1 112114Z 09017G22KT 22/06 A303 RMK A01 T02190059  RH  035%=      5-min Rain = 0
KFL1 112115Z 08014KT 22/06 A303 RMK A01 T02190055  RH  035%=      5-min Rain = 0
KFL1 112116Z 07010G15KT 22/05 A303 RMK A01 T02170054  RH  034%=      5-min Rain = 0
KFL1 112117Z 07011G16KT 22/05 A303 RMK A01 T02190053  RH  034%=      5-min Rain = 0
KFL1 112118Z 07011KT 22/05 A303 RMK A01 T02170053  RH  034%=      5-min Rain = 0
KFL1 112119Z 07009KT 22/05 A303 RMK A01 T02180054  RH  034%=      5-min Rain = 0
KFL1 112120Z 08011G18KT 22/05 A303 RMK A01 T02170053  RH  035%=      5-min Rain = 0
KFL1 112121Z 07012G17KT 22/05 A303 RMK A01 T02160054  RH  035%=      5-min Rain = 0
KFL1 112122Z 07012G17KT 22/05 A303 RMK A01 T02160054  RH  035%=      5-min Rain = 0
KFL1 112123Z 07012KT 21/06 A303 RMK A01 T02140055  RH  035%=      5-min Rain = 0
KFL1 112124Z 08012KT 22/06 A303 RMK A01 T02160058  RH  036%=      5-min Rain = 0
KFL1 112125Z 07012G18KT 22/06 A303 RMK A01 T02150058  RH  036%=      5-min Rain = 0
KFL1 112126Z 06009KT 22/06 A3029 RMK A01 T02150058  RH  036%=      5-min Rain = 0
KFL1 112127Z 05012G17KT 22/06 A3029 RMK A01 T02160060  RH  036%=      5-min Rain = 0
KFL1 112128Z 05016G21KT 22/06 A3029 RMK A01 T02160055  RH  035%=      5-min Rain = 0
KFL1 112129Z 04014G20KT 22/05 A3029 RMK A01 T02170051  RH  034%=      5-min Rain = 0
KFL1 112130Z 04015G23KT 22/05 A3029 RMK A01 T02180051  RH  034%=      5-min Rain = 0
KFL1 112131Z 04016G23KT 22/05 A3028 RMK A01 T02190049  RH  033%=      5-min Rain = 0
KFL1 112132Z 04016G24KT 22/05 A3028 RMK A01 T02210050  RH  033%=      5-min Rain = 0
KFL1 112133Z 04016G24KT 22/05 A3028 RMK A01 T02200049  RH  033%=      5-min Rain = 0
KFL1 112134Z 02018G26KT 22/05 A3028 RMK A01 T02230050  RH  033%=      5-min Rain = 0
KFL1 112135Z 04017G23KT 22/05 A3028 RMK A01 T02220049  RH  032%=      5-min Rain = 0
KFL1 112136Z 04018G24KT 22/05 A3028 RMK A01 T02220048  RH  032%=      5-min Rain = 0
KFL1 112137Z 02019G25KT 23/05 A3028 RMK A01 T02250049  RH  032%=      5-min Rain = 0
KFL1 112138Z 03020G25KT 22/05 A3028 RMK A01 T02230046  RH  031%=      5-min Rain = 0
KFL1 112139Z 03015KT 23/05 A3028 RMK A01 T02250048  RH  031%=      5-min Rain = 0
KFL1 112140Z 02016G21KT 23/05 A3028 RMK A01 T02250050  RH  032%=      5-min Rain = 0
KFL1 112141Z 04011G18KT 23/05 A3028 RMK A01 T02250052  RH  033%=      5-min Rain = 0
KFL1 112142Z 03016G21KT 23/06 A3028 RMK A01 T02250056  RH  033%=      5-min Rain = 0
KFL1 112143Z 03015KT 23/05 A3028 RMK A01 T02250052  RH  033%=      5-min Rain = 0
KFL1 112144Z 03014KT 23/06 A3028 RMK A01 T02250055  RH  033%=      5-min Rain = 0
KFL1 112145Z 03015KT 23/06 A3028 RMK A01 T02250055  RH  033%=      5-min Rain = 0
KFL1 112146Z 03014G19KT 22/06 A3028 RMK A01 T02240055  RH  033%=      5-min Rain = 0
KFL1 112147Z 03012G18KT 23/06 A3028 RMK A01 T02250056  RH  033%=      5-min Rain = 0
KFL1 112148Z 03012G17KT 22/06 A3028 RMK A01 T02240055  RH  033%=      5-min Rain = 0
KFL1 112149Z 03013G19KT 23/05 A3027 RMK A01 T02250051  RH  032%=      5-min Rain = 0
KFL1 112150Z 03016KT 23/05 A3027 RMK A01 T02250048  RH  032%=      5-min Rain = 0
KFL1 112151Z 03015KT 23/05 A3027 RMK A01 T02260049  RH  032%=      5-min Rain = 0
KFL1 112152Z 03012KT 23/05 A3027 RMK A01 T02270052  RH  032%=      5-min Rain = 0
KFL1 112153Z 03014G19KT 23/05 A3028 RMK A01 T02280054  RH  032%=      5-min Rain = 0
KFL1 112154Z 04013KT 23/05 A3028 RMK A01 T02270051  RH  032%=      5-min Rain = 0
KFL1 112155Z 03012KT 23/05 A3028 RMK A01 T02250050  RH  032%=      5-min Rain = 0
KFL1 112156Z 03014KT 23/05 A3028 RMK A01 T02260050  RH  032%=      5-min Rain = 0
KFL1 112157Z 03012G18KT 23/05 A3028 RMK A01 T02270051  RH  032%=      5-min Rain = 0
KFL1 112158Z 02013KT 23/05 A3028 RMK A01 T02270052  RH  032%=      5-min Rain = 0
KFL1 112159Z 03012KT 23/05 A3028 RMK A01 T02260051  RH  032%=      5-min Rain = 0
KFL1 112200Z 03011G18KT 23/05 A3028 RMK A01 T02280052  RH  032%=      5-min Rain = 0
KFL1 112201Z 03012G18KT 23/05 A3028 RMK A01 T02260051  RH  032%=      5-min Rain = 0
KFL1 112202Z 03010KT 23/05 A3028 RMK A01 T02270049  RH  031%=      5-min Rain = 0
KFL1 112203Z 02012KT 23/06 A3028 RMK A01 T02280055  RH  033%=      5-min Rain = 0
KFL1 112204Z 01010KT 23/05 A3028 RMK A01 T02290054  RH  032%=      5-min Rain = 0
KFL1 112205Z 02009KT 23/06 A3028 RMK A01 T02280057  RH  033%=      5-min Rain = 0
KFL1 112206Z 02009KT 23/06 A3028 RMK A01 T02300061  RH  033%=      5-min Rain = 0
KFL1 112207Z 02009KT 23/06 A3028 RMK A01 T02300060  RH  033%=      5-min Rain = 0
KFL1 112208Z 01011KT 23/06 A3028 RMK A01 T02310060  RH  033%=      5-min Rain = 0
KFL1 112209Z 00013KT 23/06 A3028 RMK A01 T02330056  RH  032%=      5-min Rain = 0
KFL1 112210Z 35012KT 23/05 A3028 RMK A01 T02320050  RH  031%=      5-min Rain = 0
KFL1 112211Z 35010KT 24/05 A3028 RMK A01 T02350049  RH  030%=      5-min Rain = 0
KFL1 112212Z 00009KT 24/05 A3028 RMK A01 T02360050  RH  030%=      5-min Rain = 0
KFL1 112213Z 35008KT 24/06 A3028 RMK A01 T02380060  RH  032%=      5-min Rain = 0
KFL1 112214Z 35011KT 24/05 A3027 RMK A01 T02370051  RH  030%=      5-min Rain = 0
KFL1 112215Z 35009KT 24/05 A3028 RMK A01 T02390051  RH  030%=      5-min Rain = 0
KFL1 112216Z 00010KT 24/05 A3027 RMK A01 T02400051  RH  029%=      5-min Rain = 0
KFL1 112217Z 35007KT 24/05 A3027 RMK A01 T02400054  RH  030%=      5-min Rain = 0
KFL1 112218Z 34009KT 24/05 A3027 RMK A01 T02390051  RH  030%=      5-min Rain = 0
KFL1 112219Z 35009KT 24/05 A3027 RMK A01 T02400050  RH  029%=      5-min Rain = 0
KFL1 112220Z 35010KT 24/05 A3027 RMK A01 T02400047  RH  029%=      5-min Rain = 0
KFL1 112221Z 34008KT 24/05 A3027 RMK A01 T02400049  RH  029%=      5-min Rain = 0
KFL1 112222Z 34009KT 24/05 A3027 RMK A01 T02400049  RH  029%=      5-min Rain = 0
KFL1 112223Z 34008KT 24/05 A3027 RMK A01 T02420050  RH  029%=      5-min Rain = 0
KFL1 112224Z 34009KT 24/05 A3027 RMK A01 T02420049  RH  029%=      5-min Rain = 0
KFL1 112225Z 36009KT 24/05 A3027 RMK A01 T02420052  RH  029%=      5-min Rain = 0
KFL1 112226Z 35009KT 24/06 A3027 RMK A01 T02430055  RH  030%=      5-min Rain = 0
KFL1 112227Z 35009KT 24/06 A3027 RMK A01 T02430055  RH  030%=      5-min Rain = 0
KFL1 112228Z 35009KT 24/05 A3027 RMK A01 T02430054  RH  030%=      5-min Rain = 0
KFL1 112229Z 34008KT 24/05 A3027 RMK A01 T02430053  RH  029%=      5-min Rain = 0
KFL1 112230Z 33008KT 24/05 A3027 RMK A01 T02410052  RH  029%=      5-min Rain = 0
KFL1 112231Z 33007KT 24/05 A3027 RMK A01 T02420053  RH  030%=      5-min Rain = 0
KFL1 112232Z 31007KT 24/06 A3027 RMK A01 T02420058  RH  031%=      5-min Rain = 0
KFL1 112233Z 32008KT 24/06 A3027 RMK A01 T02420059  RH  031%=      5-min Rain = 0
KFL1 112234Z 31006KT 24/05 A3027 RMK A01 T02410054  RH  030%=      5-min Rain = 0
KFL1 112235Z 31007KT 24/05 A3027 RMK A01 T02410053  RH  030%=      5-min Rain = 0
KFL1 112236Z 30007KT 24/05 A3027 RMK A01 T02400054  RH  030%=      5-min Rain = 0
KFL1 112237Z 31007KT 24/06 A3027 RMK A01 T02410057  RH  030%=      5-min Rain = 0
KFL1 112238Z 29012KT 24/05 A3027 RMK A01 T02400054  RH  030%=      5-min Rain = 0
KFL1 112239Z 30014KT 24/05 A3027 RMK A01 T02400053  RH  030%=      5-min Rain = 0
KFL1 112240Z 29014G19KT 24/05 A3027 RMK A01 T02380054  RH  030%=      5-min Rain = 0
KFL1 112241Z 29013G18KT 24/06 A3027 RMK A01 T02350058  RH  032%=      5-min Rain = 0
KFL1 112242Z 29015KT 23/06 A3027 RMK A01 T02330056  RH  032%=      5-min Rain = 0
KFL1 112243Z 29014KT 23/06 A3027 RMK A01 T02310057  RH  032%=      5-min Rain = 0
KFL1 112244Z 29011KT 23/06 A3027 RMK A01 T02300059  RH  033%=      5-min Rain = 0
KFL1 112245Z 30014KT 23/06 A3027 RMK A01 T02290058  RH  033%=      5-min Rain = 0
KFL1 112246Z 29015KT 23/06 A3027 RMK A01 T02280060  RH  034%=      5-min Rain = 0
KFL1 112247Z 29016KT 23/06 A3027 RMK A01 T02270057  RH  033%=      5-min Rain = 0
KFL1 112248Z 30013KT 23/06 A3027 RMK A01 T02270058  RH  033%=      5-min Rain = 0
KFL1 112249Z 30013KT 23/06 A3027 RMK A01 T02270060  RH  034%=      5-min Rain = 0
KFL1 112250Z 30012KT 23/06 A3027 RMK A01 T02260060  RH  034%=      5-min Rain = 0
KFL1 112251Z 30009KT 23/06 A3027 RMK A01 T02250062  RH  035%=      5-min Rain = 0
KFL1 112252Z 29009KT 23/06 A3027 RMK A01 T02250061  RH  035%=      5-min Rain = 0
KFL1 112253Z 29012G17KT 23/06 A3026 RMK A01 T02260060  RH  034%=      5-min Rain = 0
KFL1 112254Z 30015KT 23/05 A3026 RMK A01 T02260053  RH  033%=      5-min Rain = 0
KFL1 112255Z 29014KT 23/06 A3026 RMK A01 T02270056  RH  033%=      5-min Rain = 0
KFL1 112256Z 28013KT 23/06 A3026 RMK A01 T02260057  RH  033%=      5-min Rain = 0
KFL1 112257Z 31012KT 23/06 A3026 RMK A01 T02270058  RH  033%=      5-min Rain = 0
KFL1 112258Z 31009KT 23/05 A3026 RMK A01 T02260052  RH  032%=      5-min Rain = 0
KFL1 112259Z 30009KT 23/06 A3026 RMK A01 T02250056  RH  033%=      5-min Rain = 0
KFL1 112300Z 29012KT 23/06 A3026 RMK A01 T02250056  RH  033%=      5-min Rain = 0
KFL1 112301Z 29009KT 23/06 A3026 RMK A01 T02260056  RH  033%=      5-min Rain = 0
KFL1 112302Z 31009KT 23/06 A3026 RMK A01 T02250060  RH  034%=      5-min Rain = 0
KFL1 112303Z 30008KT 22/06 A3026 RMK A01 T02240058  RH  034%=      5-min Rain = 0
KFL1 112304Z 30007KT 22/06 A3026 RMK A01 T02240060  RH  034%=      5-min Rain = 0
KFL1 112305Z 30005KT 23/06 A3026 RMK A01 T02260064  RH  035%=      5-min Rain = 0
KFL1 112306Z 30006KT 23/06 A3026 RMK A01 T02250064  RH  035%=      5-min Rain = 0
KFL1 112307Z 30005KT 23/06 A3026 RMK A01 T02250064  RH  035%=      5-min Rain = 0
KFL1 112308Z 31005KT 22/06 A3026 RMK A01 T02240063  RH  035%=      5-min Rain = 0
KFL1 112309Z 31008KT 22/06 A3025 RMK A01 T02240061  RH  035%=      5-min Rain = 0
KFL1 112310Z 31009KT 23/06 A3025 RMK A01 T02260057  RH  033%=      5-min Rain = 0
KFL1 112311Z 33007KT 23/06 A3025 RMK A01 T02270059  RH  034%=      5-min Rain = 0
KFL1 112312Z 33008KT 23/06 A3025 RMK A01 T02280060  RH  034%=      5-min Rain = 0
KFL1 112313Z 33008KT 23/06 A3025 RMK A01 T02290063  RH  034%=      5-min Rain = 0
KFL1 112314Z 33008KT 23/06 A3025 RMK A01 T02280055  RH  033%=      5-min Rain = 0
KFL1 112315Z 33007KT 23/06 A3025 RMK A01 T02290059  RH  033%=      5-min Rain = 0
KFL1 112316Z 32006KT 23/06 A3025 RMK A01 T02280058  RH  033%=      5-min Rain = 0
KFL1 112317Z 32007KT 23/06 A3025 RMK A01 T02280056  RH  033%=      5-min Rain = 0
KFL1 112318Z 33006KT 23/06 A3025 RMK A01 T02280058  RH  033%=      5-min Rain = 0
KFL1 112319Z 32007KT 23/06 A3025 RMK A01 T02290056  RH  033%=      5-min Rain = 0
KFL1 112320Z 33006KT 23/05 A3025 RMK A01 T02290051  RH  031%=      5-min Rain = 0
KFL1 112321Z 34006KT 23/05 A3026 RMK A01 T02300051  RH  031%=      5-min Rain = 0
KFL1 112322Z 34006KT 23/05 A3026 RMK A01 T02310052  RH  031%=      5-min Rain = 0
KFL1 112323Z 33006KT 23/06 A3026 RMK A01 T02310056  RH  032%=      5-min Rain = 0
KFL1 112324Z 32005KT 23/06 A3026 RMK A01 T02300055  RH  032%=      5-min Rain = 0
KFL1 112325Z 32004KT 23/06 A3026 RMK A01 T02310056  RH  032%=      5-min Rain = 0
KFL1 112326Z 31005KT 23/06 A3026 RMK A01 T02300057  RH  032%=      5-min Rain = 0
KFL1 112327Z 31003KT 23/06 A3026 RMK A01 T02310060  RH  033%=      5-min Rain = 0
KFL1 112328Z 30003KT 23/06 A3026 RMK A01 T02300062  RH  034%=      5-min Rain = 0
KFL1 112329Z 31004KT 23/07 A3026 RMK A01 T02310069  RH  035%=      5-min Rain = 0
KFL1 112330Z 31005KT 23/07 A3026 RMK A01 T02310071  RH  036%=      5-min Rain = 0
KFL1 112331Z 29005KT 23/07 A3026 RMK A01 T02290073  RH  037%=      5-min Rain = 0
KFL1 112332Z 30006KT 23/07 A3026 RMK A01 T02280066  RH  035%=      5-min Rain = 0
KFL1 112333Z 27005KT 23/07 A3026 RMK A01 T02260067  RH  036%=      5-min Rain = 0
KFL1 112334Z 27005KT 23/07 A3026 RMK A01 T02250070  RH  037%=      5-min Rain = 0
KFL1 112335Z 26005KT 23/08 A3026 RMK A01 T02250075  RH  038%=      5-min Rain = 0
KFL1 112336Z 26006KT 22/07 A3026 RMK A01 T02220071  RH  038%=      5-min Rain = 0
KFL1 112337Z 27006KT 22/07 A3026 RMK A01 T02240066  RH  036%=      5-min Rain = 0
KFL1 112338Z 27007KT 22/06 A3026 RMK A01 T02230061  RH  035%=      5-min Rain = 0
KFL1 112339Z 28009KT 22/06 A3026 RMK A01 T02220056  RH  034%=      5-min Rain = 0
KFL1 112340Z 29009KT 22/06 A3026 RMK A01 T02230057  RH  034%=      5-min Rain = 0
KFL1 112341Z 29007KT 22/05 A3026 RMK A01 T02230053  RH  033%=      5-min Rain = 0
KFL1 112342Z 28006KT 22/06 A3026 RMK A01 T02240058  RH  034%=      5-min Rain = 0
KFL1 112343Z 29005KT 22/06 A3026 RMK A01 T02230056  RH  034%=      5-min Rain = 0
KFL1 112344Z 29006KT 22/06 A3026 RMK A01 T02240060  RH  035%=      5-min Rain = 0
KFL1 112345Z 28005KT 22/07 A3026 RMK A01 T02240066  RH  036%=      5-min Rain = 0
KFL1 112346Z 28005KT 22/06 A3026 RMK A01 T02230060  RH  035%=      5-min Rain = 0
KFL1 112347Z 27006KT 22/06 A3025 RMK A01 T02220057  RH  034%=      5-min Rain = 0
KFL1 112348Z 30004KT 22/06 A3025 RMK A01 T02230058  RH  034%=      5-min Rain = 0
KFL1 112349Z 32004KT 22/06 A3025 RMK A01 T02230059  RH  034%=      5-min Rain = 0
KFL1 112350Z 29005KT 22/06 A3025 RMK A01 T02230063  RH  035%=      5-min Rain = 0
KFL1 112351Z 30004KT 22/07 A3025 RMK A01 T02230067  RH  036%=      5-min Rain = 0
KFL1 112352Z 29003KT 22/07 A3025 RMK A01 T02240065  RH  036%=      5-min Rain = 0
KFL1 112353Z 31004KT 22/06 A3025 RMK A01 T02240060  RH  035%=      5-min Rain = 0
KFL1 112354Z 30005KT 22/05 A3025 RMK A01 T02240054  RH  033%=      5-min Rain = 0
KFL1 112355Z 29004KT 22/06 A3025 RMK A01 T02240058  RH  034%=      5-min Rain = 0
KFL1 112356Z 28004KT 23/06 A3025 RMK A01 T02260062  RH  034%=      5-min Rain = 0
KFL1 112357Z 27004KT 23/07 A3025 RMK A01 T02250066  RH  036%=      5-min Rain = 0
KFL1 112358Z 30003KT 22/07 A3025 RMK A01 T02230065  RH  036%=      5-min Rain = 0
KFL1 112359Z 30003KT 22/07 A3025 RMK A01 T02220070  RH  037%=      5-min Rain = 0
KFL1 120000Z 34003KT 22/06 A3025 RMK A01 T02220061  RH  035%=      5-min Rain = 0
KFL1 120001Z 36005KT 22/06 A3025 RMK A01 T02230056  RH  034%=      5-min Rain = 0
KFL1 120002Z 01008KT 23/06 A3025 RMK A01 T02250061  RH  035%=      5-min Rain = 0
KFL1 120003Z 00008KT 23/07 A3025 RMK A01 T02250069  RH  036%=      5-min Rain = 0
KFL1 120004Z 01007KT 22/07 A3025 RMK A01 T02220070  RH  037%=      5-min Rain = 0
KFL1 120005Z 01007KT 22/07 A3025 RMK A01 T02220073  RH  038%=      5-min Rain = 0
KFL1 120006Z 01007KT 22/07 A3025 RMK A01 T02190072  RH  039%=      5-min Rain = 0
KFL1 120007Z 00008KT 22/07 A3025 RMK A01 T02180072  RH  039%=      5-min Rain = 0
KFL1 120008Z 00008KT 22/07 A3025 RMK A01 T02170071  RH  039%=      5-min Rain = 0
KFL1 120009Z 00008KT 22/06 A3025 RMK A01 T02160064  RH  037%=      5-min Rain = 0
KFL1 120010Z 00007KT 22/07 A3025 RMK A01 T02170068  RH  038%=      5-min Rain = 0
KFL1 120011Z 01007KT 22/07 A3025 RMK A01 T02160069  RH  039%=      5-min Rain = 0
KFL1 120012Z 02008KT 22/07 A3025 RMK A01 T02150070  RH  039%=      5-min Rain = 0
KFL1 120013Z 02007KT 22/07 A3025 RMK A01 T02150067  RH  038%=      5-min Rain = 0
KFL1 120014Z 02007KT 22/07 A3025 RMK A01 T02150067  RH  038%=      5-min Rain = 0
KFL1 120015Z 02007KT 21/07 A3025 RMK A01 T02140068  RH  039%=      5-min Rain = 0
KFL1 120016Z 02007KT 22/07 A3025 RMK A01 T02150073  RH  040%=      5-min Rain = 0
KFL1 120017Z 02006KT 21/07 A3025 RMK A01 T02130073  RH  040%=      5-min Rain = 0
KFL1 120018Z 02006KT 21/08 A3025 RMK A01 T02140076  RH  041%=      5-min Rain = 0
KFL1 120019Z 03006KT 21/08 A3025 RMK A01 T02130078  RH  042%=      5-min Rain = 0
KFL1 120020Z 02006KT 21/08 A3025 RMK A01 T02130078  RH  042%=      5-min Rain = 0
KFL1 120021Z 03005KT 21/07 A3025 RMK A01 T02120068  RH  039%=      5-min Rain = 0
KFL1 120022Z 03005KT 21/07 A3025 RMK A01 T02130066  RH  038%=      5-min Rain = 0
KFL1 120023Z 03005KT 21/07 A3025 RMK A01 T02140066  RH  038%=      5-min Rain = 0
KFL1 120024Z 03004KT 22/07 A3025 RMK A01 T02150067  RH  038%=      5-min Rain = 0
KFL1 120025Z 02005KT 22/07 A3025 RMK A01 T02150068  RH  039%=      5-min Rain = 0
KFL1 120026Z 02005KT 22/07 A3025 RMK A01 T02150071  RH  039%=      5-min Rain = 0
KFL1 120027Z 01006KT 22/07 A3025 RMK A01 T02160073  RH  040%=      5-min Rain = 0
KFL1 120028Z 00006KT 22/07 A3025 RMK A01 T02160073  RH  040%=      5-min Rain = 0
KFL1 120029Z 01007KT 22/07 A3025 RMK A01 T02150071  RH  039%=      5-min Rain = 0
KFL1 120030Z 01007KT 22/07 A3025 RMK A01 T02170071  RH  039%=      5-min Rain = 0
KFL1 120031Z 01008KT 22/07 A3025 RMK A01 T02160069  RH  039%=      5-min Rain = 0
KFL1 120032Z 01007KT 22/06 A3025 RMK A01 T02170062  RH  036%=      5-min Rain = 0
KFL1 120033Z 00006KT 22/07 A3025 RMK A01 T02180067  RH  037%=      5-min Rain = 0
KFL1 120034Z 36006KT 22/07 A3025 RMK A01 T02190071  RH  039%=      5-min Rain = 0
KFL1 120035Z 36006KT 22/07 A3025 RMK A01 T02190072  RH  039%=      5-min Rain = 0
KFL1 120036Z 36006KT 22/07 A3025 RMK A01 T02190073  RH  039%=      5-min Rain = 0
KFL1 120037Z 35007KT 22/07 A3025 RMK A01 T02210067  RH  037%=      5-min Rain = 0
KFL1 120038Z 35007KT 22/06 A3025 RMK A01 T02200063  RH  036%=      5-min Rain = 0
KFL1 120039Z 35007KT 22/06 A3025 RMK A01 T02240062  RH  035%=      5-min Rain = 0
KFL1 120040Z 35007KT 22/06 A3025 RMK A01 T02240061  RH  035%=      5-min Rain = 0
KFL1 120041Z 35007KT 23/06 A3024 RMK A01 T02250064  RH  035%=      5-min Rain = 0
KFL1 120042Z 35007KT 23/06 A3024 RMK A01 T02250061  RH  035%=      5-min Rain = 0
KFL1 120043Z 36007KT 23/07 A3024 RMK A01 T02260065  RH  035%=      5-min Rain = 0
KFL1 120044Z 35008KT 23/07 A3024 RMK A01 T02260065  RH  035%=      5-min Rain = 0
KFL1 120045Z 35007KT 23/06 A3024 RMK A01 T02270062  RH  034%=      5-min Rain = 0
KFL1 120046Z 35008KT 23/06 A3024 RMK A01 T02280061  RH  034%=      5-min Rain = 0
KFL1 120047Z 35008KT 23/06 A3024 RMK A01 T02280060  RH  034%=      5-min Rain = 0
KFL1 120048Z 36007KT 23/06 A3024 RMK A01 T02280061  RH  034%=      5-min Rain = 0
KFL1 120049Z 35006KT 23/06 A3024 RMK A01 T02280058  RH  033%=      5-min Rain = 0
KFL1 120050Z 35006KT 23/06 A3024 RMK A01 T02300059  RH  033%=      5-min Rain = 0
KFL1 120051Z 35006KT 23/06 A3024 RMK A01 T02300058  RH  033%=      5-min Rain = 0
KFL1 120052Z 35005KT 23/06 A3024 RMK A01 T02300059  RH  033%=      5-min Rain = 0
KFL1 120053Z 35005KT 23/06 A3024 RMK A01 T02310061  RH  033%=      5-min Rain = 0
KFL1 120054Z 36004KT 23/06 A3024 RMK A01 T02310061  RH  033%=      5-min Rain = 0
KFL1 120055Z 00004KT 23/06 A3024 RMK A01 T02320059  RH  033%=      5-min Rain = 0
KFL1 120056Z 00004KT 23/06 A3024 RMK A01 T02330064  RH  034%=      5-min Rain = 0
KFL1 120057Z 01004KT 23/07 A3024 RMK A01 T02320068  RH  035%=      5-min Rain = 0
KFL1 120058Z 02004KT 23/07 A3024 RMK A01 T02310073  RH  036%=      5-min Rain = 0
KFL1 120059Z 04003KT 23/08 A3024 RMK A01 T02300078  RH  038%=      5-min Rain = 0
KFL1 120100Z 04003KT 23/08 A3024 RMK A01 T02290078  RH  038%=      5-min Rain = 0
KFL1 120101Z 04004KT 23/08 A3024 RMK A01 T02280077  RH  038%=      5-min Rain = 0
KFL1 120102Z 04004KT 23/08 A3024 RMK A01 T02270077  RH  038%=      5-min Rain = 0
KFL1 120103Z 05005KT 23/08 A3024 RMK A01 T02270079  RH  039%=      5-min Rain = 0
KFL1 120104Z 05005KT 23/08 A3024 RMK A01 T02260081  RH  039%=      5-min Rain = 0
KFL1 120105Z 05004KT 23/08 A3024 RMK A01 T02260081  RH  040%=      5-min Rain = 0
KFL1 120106Z 05004KT 22/08 A3024 RMK A01 T02240081  RH  040%=      5-min Rain = 0
KFL1 120107Z 04005KT 22/08 A3024 RMK A01 T02230082  RH  040%=      5-min Rain = 0
KFL1 120108Z 04005KT 22/08 A3024 RMK A01 T02230084  RH  041%=      5-min Rain = 0
KFL1 120109Z 04005KT 22/08 A3024 RMK A01 T02230084  RH  041%=      5-min Rain = 0
KFL1 120110Z 03005KT 22/08 A3024 RMK A01 T02220082  RH  041%=      5-min Rain = 0
KFL1 120111Z 04005KT 22/08 A3024 RMK A01 T02220081  RH  040%=      5-min Rain = 0
KFL1 120112Z 03004KT 22/08 A3024 RMK A01 T02220079  RH  040%=      5-min Rain = 0
KFL1 120113Z 03004KT 22/08 A3024 RMK A01 T02210078  RH  040%=      5-min Rain = 0
KFL1 120114Z 03005KT 22/08 A3024 RMK A01 T02220078  RH  039%=      5-min Rain = 0
KFL1 120115Z 03004KT 22/08 A3024 RMK A01 T02230075  RH  039%=      5-min Rain = 0
KFL1 120116Z 02005KT 22/08 A3024 RMK A01 T02220075  RH  039%=      5-min Rain = 0
KFL1 120117Z 02004KT 22/07 A3024 RMK A01 T02220073  RH  038%=      5-min Rain = 0
KFL1 120118Z 02005KT 22/08 A3024 RMK A01 T02230077  RH  039%=      5-min Rain = 0
KFL1 120119Z 03004KT 22/08 A3024 RMK A01 T02220078  RH  040%=      5-min Rain = 0
KFL1 120120Z 03004KT 22/08 A3024 RMK A01 T02220079  RH  040%=      5-min Rain = 0
KFL1 120121Z 04003KT 22/08 A3024 RMK A01 T02220078  RH  040%=      5-min Rain = 0
KFL1 120122Z 04003KT 22/08 A3024 RMK A01 T02210077  RH  039%=      5-min Rain = 0
KFL1 120123Z 05003KT 22/08 A3024 RMK A01 T02210078  RH  040%=      5-min Rain = 0
KFL1 120124Z 05003KT 22/08 A3024 RMK A01 T02210078  RH  040%=      5-min Rain = 0
KFL1 120125Z 05003KT 22/08 A3024 RMK A01 T02200079  RH  040%=      5-min Rain = 0
KFL1 120126Z 05003KT 22/08 A3024 RMK A01 T02200079  RH  040%=      5-min Rain = 0
KFL1 120127Z 06003KT 22/08 A3024 RMK A01 T02200080  RH  041%=      5-min Rain = 0
KFL1 120128Z 07003KT 22/08 A3024 RMK A01 T02210082  RH  041%=      5-min Rain = 0
KFL1 120129Z 07003KT 22/08 A3024 RMK A01 T02200080  RH  041%=      5-min Rain = 0
KFL1 120130Z 08003KT 22/08 A3024 RMK A01 T02190080  RH  041%=      5-min Rain = 0
KFL1 120131Z 08003KT 22/08 A3024 RMK A01 T02190081  RH  041%=      5-min Rain = 0
KFL1 120132Z 07003KT 22/08 A3024 RMK A01 T02180081  RH  041%=      5-min Rain = 0
KFL1 120133Z 04003KT 22/08 A3024 RMK A01 T02180079  RH  041%=      5-min Rain = 0
KFL1 120134Z 05003KT 22/08 A3024 RMK A01 T02180078  RH  041%=      5-min Rain = 0
KFL1 120135Z 04003KT 22/08 A3024 RMK A01 T02190078  RH  040%=      5-min Rain = 0
KFL1 120136Z 05002KT 22/08 A3024 RMK A01 T02190077  RH  040%=      5-min Rain = 0
KFL1 120137Z 04002KT 22/08 A3024 RMK A01 T02190076  RH  040%=      5-min Rain = 0
KFL1 120138Z 03002KT 22/07 A3024 RMK A01 T02180072  RH  039%=      5-min Rain = 0
KFL1 120139Z 03002KT 22/08 A3024 RMK A01 T02190075  RH  039%=      5-min Rain = 0
KFL1 120140Z 03002KT 22/08 A3024 RMK A01 T02190076  RH  040%=      5-min Rain = 0
KFL1 120141Z 02003KT 22/08 A3024 RMK A01 T02190077  RH  040%=      5-min Rain = 0
KFL1 120142Z 02003KT 22/08 A3024 RMK A01 T02190080  RH  041%=      5-min Rain = 0
KFL1 120143Z 01003KT 22/09 A3024 RMK A01 T02180089  RH  044%=      5-min Rain = 0
KFL1 120144Z 35004KT 22/09 A3024 RMK A01 T02160094  RH  046%=      5-min Rain = 0
KFL1 120145Z 35004KT 21/10 A3024 RMK A01 T02120098  RH  048%=      5-min Rain = 0
KFL1 120146Z 00005KT 21/10 A3024 RMK A01 T02090100  RH  050%=      5-min Rain = 0
KFL1 120147Z 00005KT 21/10 A3024 RMK A01 T02070103  RH  051%=      5-min Rain = 0
KFL1 120148Z 00004KT 21/10 A3024 RMK A01 T02050101  RH  051%=      5-min Rain = 0
KFL1 120149Z 00004KT 20/11 A3024 RMK A01 T02030105  RH  053%=      5-min Rain = 0
KFL1 120150Z 01004KT 20/11 A3024 RMK A01 T02020108  RH  055%=      5-min Rain = 0
KFL1 120151Z 01004KT 20/11 A3024 RMK A01 T02000109  RH  055%=      5-min Rain = 0
KFL1 120152Z 01004KT 20/11 A3024 RMK A01 T01990111  RH  057%=      5-min Rain = 0
KFL1 120153Z 00004KT 20/11 A3024 RMK A01 T01970110  RH  057%=      5-min Rain = 0
KFL1 120154Z 36004KT 20/11 A3024 RMK A01 T01970110  RH  057%=      5-min Rain = 0
KFL1 120155Z 36004KT 20/11 A3024 RMK A01 T01970111  RH  058%=      5-min Rain = 0
KFL1 120156Z 36004KT 20/11 A3024 RMK A01 T01960110  RH  058%=      5-min Rain = 0
KFL1 120157Z 00004KT 20/11 A3024 RMK A01 T01950109  RH  058%=      5-min Rain = 0
KFL1 120158Z 00003KT 19/11 A3024 RMK A01 T01940106  RH  057%=      5-min Rain = 0
KFL1 120159Z 36003KT 20/11 A3025 RMK A01 T01950108  RH  057%=      5-min Rain = 0
KFL1 120200Z 00003KT 19/11 A3025 RMK A01 T01930107  RH  057%=      5-min Rain = 0
KFL1 120201Z 00003KT 19/11 A3025 RMK A01 T01930107  RH  057%=      5-min Rain = 0
KFL1 120202Z 00003KT 19/11 A3025 RMK A01 T01920107  RH  057%=      5-min Rain = 0
KFL1 120203Z 00003KT 19/11 A3025 RMK A01 T01910107  RH  058%=      5-min Rain = 0
KFL1 120204Z 01003KT 19/11 A3025 RMK A01 T01910108  RH  058%=      5-min Rain = 0
KFL1 120205Z 01002KT 19/11 A3025 RMK A01 T01910108  RH  059%=      5-min Rain = 0
KFL1 120206Z 36002KT 19/10 A3025 RMK A01 T01900103  RH  057%=      5-min Rain = 0
KFL1 120207Z 35002KT 19/11 A3025 RMK A01 T01910107  RH  058%=      5-min Rain = 0
KFL1 120208Z 34003KT 19/11 A3025 RMK A01 T01910108  RH  059%=      5-min Rain = 0
KFL1 120209Z 34003KT 19/10 A3025 RMK A01 T01900104  RH  058%=      5-min Rain = 0
KFL1 120210Z 34003KT 19/10 A3025 RMK A01 T01890103  RH  058%=      5-min Rain = 0
KFL1 120211Z 33003KT 19/10 A3025 RMK A01 T01890104  RH  057%=      5-min Rain = 0
KFL1 120212Z 31003KT 19/10 A3025 RMK A01 T01900103  RH  057%=      5-min Rain = 0
KFL1 120213Z 32002KT 19/10 A3025 RMK A01 T01890103  RH  057%=      5-min Rain = 0
KFL1 120214Z 33002KT 19/10 A3025 RMK A01 T01890100  RH  056%=      5-min Rain = 0
KFL1 120215Z 33002KT 19/09 A3025 RMK A01 T01890092  RH  054%=      5-min Rain = 0
KFL1 120216Z 33002KT 19/09 A3025 RMK A01 T01900093  RH  053%=      5-min Rain = 0
KFL1 120217Z 33001KT 19/09 A3025 RMK A01 T01890091  RH  053%=      5-min Rain = 0
KFL1 120218Z 33000KT 19/09 A3025 RMK A01 T01890094  RH  054%=      5-min Rain = 0
KFL1 120219Z 36001KT 19/09 A3025 RMK A01 T01900093  RH  053%=      5-min Rain = 0
KFL1 120220Z 01001KT 19/09 A3025 RMK A01 T01900087  RH  051%=      5-min Rain = 0
KFL1 120221Z 02001KT 19/09 A3025 RMK A01 T01910087  RH  051%=      5-min Rain = 0
KFL1 120222Z 04001KT 19/09 A3025 RMK A01 T01940090  RH  051%=      5-min Rain = 0
KFL1 120223Z 04001KT 20/09 A3025 RMK A01 T01950088  RH  050%=      5-min Rain = 0
KFL1 120224Z 03002KT 20/09 A3025 RMK A01 T01950085  RH  049%=      5-min Rain = 0
KFL1 120225Z 04002KT 20/09 A3025 RMK A01 T01960085  RH  048%=      5-min Rain = 0
KFL1 120226Z 05002KT 20/08 A3025 RMK A01 T01970080  RH  047%=      5-min Rain = 0
KFL1 120227Z 05002KT 20/08 A3025 RMK A01 T01970075  RH  045%=      5-min Rain = 0
KFL1 120228Z 05002KT 20/07 A3025 RMK A01 T01980073  RH  044%=      5-min Rain = 0
KFL1 120229Z 05003KT 20/07 A3025 RMK A01 T02000071  RH  043%=      5-min Rain = 0
KFL1 120230Z 04003KT 20/08 A3025 RMK A01 T02010078  RH  045%=      5-min Rain = 0
KFL1 120231Z 04004KT 20/08 A3025 RMK A01 T02010081  RH  046%=      5-min Rain = 0
KFL1 120232Z 04004KT 20/08 A3025 RMK A01 T01990077  RH  045%=      5-min Rain = 0
KFL1 120233Z 04004KT 20/08 A3025 RMK A01 T01990080  RH  046%=      5-min Rain = 0
KFL1 120234Z 04004KT 20/08 A3025 RMK A01 T01990080  RH  046%=      5-min Rain = 0
KFL1 120235Z 04006KT 20/08 A3025 RMK A01 T02000082  RH  046%=      5-min Rain = 0
KFL1 120236Z 04006KT 20/09 A3025 RMK A01 T01980086  RH  048%=      5-min Rain = 0
KFL1 120237Z 04005KT 20/09 A3025 RMK A01 T01980087  RH  049%=      5-min Rain = 0
KFL1 120238Z 04006KT 20/09 A3025 RMK A01 T01980085  RH  048%=      5-min Rain = 0
KFL1 120239Z 04005KT 20/08 A3025 RMK A01 T01980082  RH  047%=      5-min Rain = 0
KFL1 120240Z 04005KT 20/08 A3025 RMK A01 T02000082  RH  047%=      5-min Rain = 0
KFL1 120241Z 04004KT 20/08 A3025 RMK A01 T02000081  RH  046%=      5-min Rain = 0
KFL1 120242Z 03004KT 20/08 A3025 RMK A01 T02020082  RH  046%=      5-min Rain = 0
KFL1 120243Z 03004KT 20/08 A3025 RMK A01 T02010081  RH  046%=      5-min Rain = 0
KFL1 120244Z 03004KT 20/09 A3026 RMK A01 T02020086  RH  047%=      5-min Rain = 0
KFL1 120245Z 03003KT 20/10 A3026 RMK A01 T02000096  RH  051%=      5-min Rain = 0
KFL1 120246Z 04003KT 19/09 A3026 RMK A01 T01940092  RH  052%=      5-min Rain = 0
KFL1 120247Z 04003KT 19/10 A3026 RMK A01 T01910095  RH  054%=      5-min Rain = 0
KFL1 120248Z 04003KT 19/10 A3026 RMK A01 T01880099  RH  056%=      5-min Rain = 0
KFL1 120249Z 04003KT 19/10 A3026 RMK A01 T01860099  RH  057%=      5-min Rain = 0
KFL1 120250Z 04003KT 18/10 A3026 RMK A01 T01830099  RH  058%=      5-min Rain = 0
KFL1 120251Z 06003KT 18/10 A3026 RMK A01 T01830095  RH  057%=      5-min Rain = 0
KFL1 120252Z 06003KT 18/09 A3026 RMK A01 T01810091  RH  055%=      5-min Rain = 0
KFL1 120253Z 06004KT 18/09 A3026 RMK A01 T01820091  RH  055%=      5-min Rain = 0
KFL1 120254Z 06004KT 18/09 A3026 RMK A01 T01820093  RH  056%=      5-min Rain = 0
KFL1 120255Z 05005KT 18/09 A3026 RMK A01 T01820094  RH  056%=      5-min Rain = 0
KFL1 120256Z 06005KT 18/09 A3026 RMK A01 T01810093  RH  056%=      5-min Rain = 0
KFL1 120257Z 05004KT 18/09 A3026 RMK A01 T01810092  RH  056%=      5-min Rain = 0
KFL1 120258Z 05004KT 18/09 A3026 RMK A01 T01810090  RH  055%=      5-min Rain = 0
KFL1 120259Z 04004KT 18/09 A3026 RMK A01 T01830090  RH  054%=      5-min Rain = 0
KFL1 120300Z 05005KT 18/09 A3026 RMK A01 T01840089  RH  054%=      5-min Rain = 0
KFL1 120301Z 05004KT 19/09 A3026 RMK A01 T01850088  RH  053%=      5-min Rain = 0
KFL1 120302Z 06003KT 19/09 A3026 RMK A01 T01880088  RH  052%=      5-min Rain = 0
KFL1 120303Z 05003KT 19/09 A3026 RMK A01 T01880087  RH  052%=      5-min Rain = 0
KFL1 120304Z 06003KT 19/09 A3026 RMK A01 T01880087  RH  052%=      5-min Rain = 0
KFL1 120305Z 05003KT 19/09 A3026 RMK A01 T01870086  RH  052%=      5-min Rain = 0
KFL1 120306Z 05003KT 19/09 A3026 RMK A01 T01870086  RH  052%=      5-min Rain = 0
KFL1 120307Z 05004KT 19/08 A3026 RMK A01 T01870082  RH  050%=      5-min Rain = 0
KFL1 120308Z 05004KT 19/08 A3026 RMK A01 T01870077  RH  049%=      5-min Rain = 0
KFL1 120309Z 05003KT 19/08 A3027 RMK A01 T01900076  RH  048%=      5-min Rain = 0
KFL1 120310Z 04004KT 19/07 A3027 RMK A01 T01890073  RH  047%=      5-min Rain = 0
KFL1 120311Z 04004KT 19/08 A3027 RMK A01 T01920075  RH  047%=      5-min Rain = 0
KFL1 120312Z 04004KT 19/08 A3027 RMK A01 T01930078  RH  047%=      5-min Rain = 0
KFL1 120313Z 03004KT 19/08 A3027 RMK A01 T01930079  RH  048%=      5-min Rain = 0
KFL1 120314Z 03004KT 19/08 A3027 RMK A01 T01930083  RH  049%=      5-min Rain = 0
KFL1 120315Z 03004KT 19/09 A3027 RMK A01 T01930086  RH  050%=      5-min Rain = 0
KFL1 120316Z 03005KT 19/09 A3027 RMK A01 T01900088  RH  051%=      5-min Rain = 0
KFL1 120317Z 03006KT 19/09 A3027 RMK A01 T01870092  RH  054%=      5-min Rain = 0
KFL1 120318Z 02006KT 18/10 A3027 RMK A01 T01830104  RH  060%=      5-min Rain = 0
KFL1 120319Z 02006KT 18/11 A3027 RMK A01 T01760106  RH  063%=      5-min Rain = 0
KFL1 120320Z 02006KT 17/11 A3027 RMK A01 T01730107  RH  066%=      5-min Rain = 0
KFL1 120321Z 02006KT 17/11 A3027 RMK A01 T01700107  RH  066%=      5-min Rain = 0
KFL1 120322Z 02006KT 17/10 A3027 RMK A01 T01680104  RH  066%=      5-min Rain = 0
KFL1 120323Z 03005KT 17/10 A3027 RMK A01 T01680103  RH  066%=      5-min Rain = 0
KFL1 120324Z 02005KT 17/10 A3027 RMK A01 T01680101  RH  065%=      5-min Rain = 0
KFL1 120325Z 02005KT 17/10 A3028 RMK A01 T01690101  RH  064%=      5-min Rain = 0
KFL1 120326Z 02005KT 17/10 A3028 RMK A01 T01690102  RH  064%=      5-min Rain = 0
KFL1 120327Z 03005KT 17/10 A3028 RMK A01 T01690100  RH  064%=      5-min Rain = 0
KFL1 120328Z 04005KT 17/10 A3028 RMK A01 T01700101  RH  064%=      5-min Rain = 0
KFL1 120329Z 05004KT 17/10 A3028 RMK A01 T01690097  RH  062%=      5-min Rain = 0
KFL1 120330Z 05005KT 17/10 A3028 RMK A01 T01720097  RH  061%=      5-min Rain = 0
KFL1 120331Z 06003KT 17/10 A3029 RMK A01 T01740096  RH  060%=      5-min Rain = 0
KFL1 120332Z 08004KT 18/10 A3029 RMK A01 T01760096  RH  059%=      5-min Rain = 0
KFL1 120333Z 11004KT 18/10 A303 RMK A01 T01760096  RH  060%=      5-min Rain = 0
KFL1 120334Z 09005KT 18/10 A303 RMK A01 T01760098  RH  060%=      5-min Rain = 0
KFL1 120335Z 10004KT 17/10 A303 RMK A01 T01740096  RH  060%=      5-min Rain = 0
KFL1 120336Z 12003KT 18/09 A303 RMK A01 T01750094  RH  059%=      5-min Rain = 0
KFL1 120337Z 12004KT 18/09 A303 RMK A01 T01760090  RH  057%=      5-min Rain = 0
KFL1 120338Z 13005KT 18/09 A303 RMK A01 T01750085  RH  055%=      5-min Rain = 0
KFL1 120339Z 12005KT 18/08 A303 RMK A01 T01750083  RH  055%=      5-min Rain = 0
KFL1 120340Z 12004KT 18/08 A303 RMK A01 T01770081  RH  053%=      5-min Rain = 0
KFL1 120341Z 12005KT 18/08 A303 RMK A01 T01790079  RH  052%=      5-min Rain = 0
KFL1 120342Z 12004KT 18/08 A303 RMK A01 T01800078  RH  051%=      5-min Rain = 0
KFL1 120343Z 12005KT 18/08 A303 RMK A01 T01810076  RH  050%=      5-min Rain = 0
KFL1 120344Z 13005KT 18/08 A303 RMK A01 T01840075  RH  049%=      5-min Rain = 0
KFL1 120345Z 12005KT 19/07 A303 RMK A01 T01850073  RH  048%=      5-min Rain = 0
KFL1 120346Z 13005KT 19/07 A3031 RMK A01 T01890069  RH  046%=      5-min Rain = 0
KFL1 120347Z 13005KT 19/07 A3031 RMK A01 T01910069  RH  045%=      5-min Rain = 0
KFL1 120348Z 13004KT 20/07 A3031 RMK A01 T01950071  RH  044%=      5-min Rain = 0
KFL1 120349Z 12004KT 20/07 A3031 RMK A01 T01960070  RH  044%=      5-min Rain = 0
KFL1 120350Z 14003KT 20/07 A3031 RMK A01 T01960071  RH  044%=      5-min Rain = 0
KFL1 120351Z 15005KT 20/07 A3031 RMK A01 T01970071  RH  044%=      5-min Rain = 0
KFL1 120352Z 16006KT 20/07 A3031 RMK A01 T01960069  RH  044%=      5-min Rain = 0
KFL1 120353Z 15005KT 20/07 A3031 RMK A01 T01970068  RH  043%=      5-min Rain = 0
KFL1 120354Z 16004KT 20/07 A3032 RMK A01 T01980068  RH  043%=      5-min Rain = 0
KFL1 120355Z 16003KT 20/07 A3032 RMK A01 T01980069  RH  043%=      5-min Rain = 0
KFL1 120356Z 17006KT 20/07 A3032 RMK A01 T01990070  RH  043%=      5-min Rain = 0
KFL1 120357Z 16006KT 20/07 A3032 RMK A01 T01990070  RH  043%=      5-min Rain = 0
KFL1 120358Z 16005KT 20/07 A3032 RMK A01 T01990071  RH  043%=      5-min Rain = 0
KFL1 120359Z 15006G11KT 20/08 A3032 RMK A01 T02020075  RH  044%=      5-min Rain = 0
KFL1 120400Z 14008G15KT 20/08 A3032 RMK A01 T02020075  RH  044%=      5-min Rain = 0
KFL1 120401Z 16010KT 20/08 A3032 RMK A01 T02020076  RH  044%=      5-min Rain = 0
KFL1 120402Z 16011KT 20/08 A3032 RMK A01 T02030078  RH  044%=      5-min Rain = 0
KFL1 120403Z 16012G18KT 20/08 A3032 RMK A01 T02030078  RH  044%=      5-min Rain = 0
KFL1 120404Z 16011KT 20/08 A3032 RMK A01 T02030079  RH  045%=      5-min Rain = 0
KFL1 120405Z 16011KT 20/08 A3032 RMK A01 T02030080  RH  045%=      5-min Rain = 0
KFL1 120406Z 15011G17KT 20/08 A3032 RMK A01 T02040081  RH  045%=      5-min Rain = 0
KFL1 120407Z 14011KT 20/08 A3032 RMK A01 T02030079  RH  045%=      5-min Rain = 0
KFL1 120408Z 16013KT 20/08 A3032 RMK A01 T02030080  RH  045%=      5-min Rain = 0
KFL1 120409Z 15010KT 20/08 A3033 RMK A01 T02020079  RH  045%=      5-min Rain = 0
KFL1 120410Z 16010KT 20/08 A3033 RMK A01 T02020079  RH  045%=      5-min Rain = 0
KFL1 120411Z 17010KT 20/08 A3033 RMK A01 T02010079  RH  045%=      5-min Rain = 0
KFL1 120412Z 17006G12KT 20/08 A3033 RMK A01 T02010078  RH  045%=      5-min Rain = 0
KFL1 120413Z 17008KT 20/08 A3033 RMK A01 T02010078  RH  045%=      5-min Rain = 0
KFL1 120414Z 16008G14KT 20/08 A3033 RMK A01 T02000078  RH  045%=      5-min Rain = 0
KFL1 120415Z 19010KT 20/08 A3033 RMK A01 T02010079  RH  045%=      5-min Rain = 0
KFL1 120416Z 18011G16KT 20/08 A3033 RMK A01 T02000077  RH  045%=      5-min Rain = 0
KFL1 120417Z 19009KT 20/08 A3033 RMK A01 T02000077  RH  045%=      5-min Rain = 0
KFL1 120418Z 17008KT 20/08 A3033 RMK A01 T02000078  RH  045%=      5-min Rain = 0
KFL1 120419Z 18009KT 20/08 A3033 RMK A01 T02000080  RH  046%=      5-min Rain = 0
KFL1 120420Z 17008KT 20/08 A3033 RMK A01 T01990080  RH  046%=      5-min Rain = 0
KFL1 120421Z 18007KT 20/08 A3033 RMK A01 T01990080  RH  046%=      5-min Rain = 0
KFL1 120422Z 18008KT 20/08 A3033 RMK A01 T01980080  RH  046%=      5-min Rain = 0
KFL1 120423Z 19008KT 20/08 A3033 RMK A01 T01960078  RH  046%=      5-min Rain = 0
KFL1 120424Z 19009KT 20/08 A3034 RMK A01 T01970080  RH  047%=      5-min Rain = 0
KFL1 120425Z 18008KT 20/08 A3034 RMK A01 T01960080  RH  047%=      5-min Rain = 0
KFL1 120426Z 19010KT 20/08 A3034 RMK A01 T01950081  RH  047%=      5-min Rain = 0
KFL1 120427Z 19011KT 19/08 A3034 RMK A01 T01940080  RH  048%=      5-min Rain = 0
KFL1 120428Z 18010KT 20/08 A3034 RMK A01 T01950080  RH  048%=      5-min Rain = 0
KFL1 120429Z 18012G17KT 20/08 A3034 RMK A01 T01950081  RH  048%=      5-min Rain = 0
KFL1 120430Z 19012KT 19/08 A3035 RMK A01 T01930080  RH  048%=      5-min Rain = 0
KFL1 120431Z 19011KT 19/08 A3035 RMK A01 T01920080  RH  048%=      5-min Rain = 0
KFL1 120432Z 19010G15KT 19/08 A3035 RMK A01 T01930083  RH  049%=      5-min Rain = 0
KFL1 120433Z 19006KT 19/08 A3035 RMK A01 T01920084  RH  049%=      5-min Rain = 0
KFL1 120434Z 20010G16KT 19/08 A3035 RMK A01 T01920083  RH  049%=      5-min Rain = 0
KFL1 120435Z 19012KT 19/08 A3035 RMK A01 T01900082  RH  050%=      5-min Rain = 0
KFL1 120436Z 19010G15KT 19/09 A3035 RMK A01 T01900085  RH  050%=      5-min Rain = 0
KFL1 120437Z 20009KT 19/09 A3035 RMK A01 T01890087  RH  051%=      5-min Rain = 0
KFL1 120438Z 20010G15KT 19/09 A3036 RMK A01 T01890091  RH  053%=      5-min Rain = 0
KFL1 120439Z 19011KT 19/09 A3036 RMK A01 T01870090  RH  053%=      5-min Rain = 0
KFL1 120440Z 19009KT 18/09 A3036 RMK A01 T01840089  RH  054%=      5-min Rain = 0
KFL1 120441Z 20009KT 19/09 A3036 RMK A01 T01850092  RH  054%=      5-min Rain = 0
KFL1 120442Z 21008G13KT 18/09 A3036 RMK A01 T01830091  RH  055%=      5-min Rain = 0
KFL1 120443Z 21008KT 18/09 A3036 RMK A01 T01830092  RH  055%=      5-min Rain = 0
KFL1 120444Z 20010KT 18/09 A3036 RMK A01 T01820092  RH  055%=      5-min Rain = 0
KFL1 120445Z 20011G16KT 18/09 A3036 RMK A01 T01810090  RH  055%=      5-min Rain = 0
KFL1 120446Z 20007KT 18/09 A3036 RMK A01 T01820091  RH  056%=      5-min Rain = 0
KFL1 120447Z 20009G14KT 18/09 A3037 RMK A01 T01820093  RH  056%=      5-min Rain = 0
KFL1 120448Z 20010KT 18/09 A3037 RMK A01 T01810092  RH  056%=      5-min Rain = 0
KFL1 120449Z 18009KT 18/09 A3037 RMK A01 T01820092  RH  056%=      5-min Rain = 0
KFL1 120450Z 20007KT 18/09 A3037 RMK A01 T01810093  RH  056%=      5-min Rain = 0
KFL1 120451Z 19007KT 18/09 A3037 RMK A01 T01810093  RH  056%=      5-min Rain = 0
KFL1 120452Z 19007KT 18/10 A3037 RMK A01 T01820095  RH  057%=      5-min Rain = 0
KFL1 120453Z 19008KT 18/09 A3037 RMK A01 T01810094  RH  057%=      5-min Rain = 0
KFL1 120454Z 20006KT 18/09 A3037 RMK A01 T01820094  RH  057%=      5-min Rain = 0
KFL1 120455Z 19006KT 18/09 A3037 RMK A01 T01810094  RH  056%=      5-min Rain = 0
KFL1 120456Z 19005KT 18/09 A3037 RMK A01 T01810092  RH  056%=      5-min Rain = 0
KFL1 120457Z 18006G11KT 18/09 A3037 RMK A01 T01800091  RH  056%=      5-min Rain = 0
KFL1 120458Z 19009KT 18/09 A3037 RMK A01 T01820093  RH  056%=      5-min Rain = 0
KFL1 120459Z 18007KT 18/09 A3037 RMK A01 T01820093  RH  056%=      5-min Rain = 0

Page generated in 0.0334 seconds.